<?xml version='1.0' encoding='UTF-8'?><gpx version="1.1" creator="JPX - https://github.com/jenetics/jpx" xmlns="http://www.topografix.com/GPX/1/1"><trk><trkseg><trkpt lat="44.1844212" lon="12.1154596"><ele>29.0</ele><time>2026-05-01T08:12:29.129Z</time></trkpt><trkpt lat="44.1844817" lon="12.1154114"><ele>29.0</ele><time>2026-05-01T08:12:32.929Z</time></trkpt><trkpt lat="44.1845073" lon="12.1155766"><ele>29.0</ele><time>2026-05-01T08:12:35.059Z</time></trkpt><trkpt lat="44.1845039" lon="12.1154371"><ele>29.0</ele><time>2026-05-01T08:12:36.141Z</time></trkpt><trkpt lat="44.1844394" lon="12.1156839"><ele>29.166666666666664</ele><time>2026-05-01T08:12:57.989Z</time></trkpt><trkpt lat="44.184429" lon="12.1157886"><ele>29.333333333333332</ele><time>2026-05-01T08:13:13.049Z</time></trkpt><trkpt lat="44.1844076" lon="12.1158855"><ele>29.5</ele><time>2026-05-01T08:13:17.087Z</time></trkpt><trkpt lat="44.1844661" lon="12.1159334"><ele>29.666666666666664</ele><time>2026-05-01T08:13:23.082Z</time></trkpt><trkpt lat="44.1845345" lon="12.1159466"><ele>29.833333333333332</ele><time>2026-05-01T08:13:29.077Z</time></trkpt><trkpt lat="44.1846027" lon="12.1159792"><ele>30.0</ele><time>2026-05-01T08:13:36.087Z</time></trkpt><trkpt lat="44.1844729" lon="12.1165101"><ele>30.0</ele><time>2026-05-01T08:13:43.099Z</time></trkpt><trkpt lat="44.1844181" lon="12.1166752"><ele>30.0</ele><time>2026-05-01T08:13:44.115Z</time></trkpt><trkpt lat="44.1843975" lon="12.1167699"><ele>30.0</ele><time>2026-05-01T08:13:48.078Z</time></trkpt><trkpt lat="44.1843683" lon="12.1168477"><ele>30.0</ele><time>2026-05-01T08:13:53.157Z</time></trkpt><trkpt lat="44.1843371" lon="12.1169445"><ele>30.0</ele><time>2026-05-01T08:13:58.136Z</time></trkpt><trkpt lat="44.1843129" lon="12.117032"><ele>30.0</ele><time>2026-05-01T08:14:03.115Z</time></trkpt><trkpt lat="44.1842784" lon="12.1171234"><ele>30.0</ele><time>2026-05-01T08:14:10.126Z</time></trkpt><trkpt lat="44.1842473" lon="12.1172008"><ele>30.0</ele><time>2026-05-01T08:14:15.308Z</time></trkpt><trkpt lat="44.1842156" lon="12.1172946"><ele>30.0</ele><time>2026-05-01T08:14:21.1Z</time></trkpt><trkpt lat="44.1841829" lon="12.1173865"><ele>30.0</ele><time>2026-05-01T08:14:27.095Z</time></trkpt><trkpt lat="44.1841589" lon="12.1174822"><ele>30.0</ele><time>2026-05-01T08:14:34.105Z</time></trkpt><trkpt lat="44.1841596" lon="12.1175751"><ele>30.0</ele><time>2026-05-01T08:14:41.024Z</time></trkpt><trkpt lat="44.1842164" lon="12.1176274"><ele>30.0</ele><time>2026-05-01T08:14:45.079Z</time></trkpt><trkpt lat="44.1842754" lon="12.1176683"><ele>29.571428571428573</ele><time>2026-05-01T08:14:49.142Z</time></trkpt><trkpt lat="44.1843462" lon="12.1177319"><ele>29.142857142857142</ele><time>2026-05-01T08:14:54.122Z</time></trkpt><trkpt lat="44.1843973" lon="12.1177941"><ele>28.714285714285715</ele><time>2026-05-01T08:15:00.167Z</time></trkpt><trkpt lat="44.1844168" lon="12.1178804"><ele>28.285714285714285</ele><time>2026-05-01T08:15:09.059Z</time></trkpt><trkpt lat="44.1843757" lon="12.1179477"><ele>27.857142857142854</ele><time>2026-05-01T08:15:14.139Z</time></trkpt><trkpt lat="44.184331" lon="12.118029"><ele>27.428571428571427</ele><time>2026-05-01T08:15:18.102Z</time></trkpt><trkpt lat="44.1843003" lon="12.1181184"><ele>27.0</ele><time>2026-05-01T08:15:22.064Z</time></trkpt><trkpt lat="44.184272" lon="12.1182136"><ele>27.0</ele><time>2026-05-01T08:15:26.129Z</time></trkpt><trkpt lat="44.1842739" lon="12.1183152"><ele>27.0</ele><time>2026-05-01T08:15:30.091Z</time></trkpt><trkpt lat="44.1843142" lon="12.1184"><ele>27.0</ele><time>2026-05-01T08:15:36.085Z</time></trkpt><trkpt lat="44.1843687" lon="12.1184466"><ele>27.0</ele><time>2026-05-01T08:15:41.064Z</time></trkpt><trkpt lat="44.184427" lon="12.1184916"><ele>27.0</ele><time>2026-05-01T08:15:47.162Z</time></trkpt><trkpt lat="44.1844861" lon="12.1185345"><ele>27.0</ele><time>2026-05-01T08:15:55.108Z</time></trkpt><trkpt lat="44.1845463" lon="12.1185922"><ele>27.0</ele><time>2026-05-01T08:16:00.066Z</time></trkpt><trkpt lat="44.1845999" lon="12.1186534"><ele>27.0</ele><time>2026-05-01T08:16:07.076Z</time></trkpt><trkpt lat="44.1846474" lon="12.1187111"><ele>27.0</ele><time>2026-05-01T08:16:13.072Z</time></trkpt><trkpt lat="44.1847092" lon="12.1187578"><ele>27.0</ele><time>2026-05-01T08:16:24.048Z</time></trkpt><trkpt lat="44.1847619" lon="12.118813"><ele>27.0</ele><time>2026-05-01T08:16:28.109Z</time></trkpt><trkpt lat="44.1848038" lon="12.1188797"><ele>27.0</ele><time>2026-05-01T08:16:34.105Z</time></trkpt><trkpt lat="44.1848179" lon="12.1189769"><ele>27.0</ele><time>2026-05-01T08:16:40.099Z</time></trkpt><trkpt lat="44.1848047" lon="12.1190674"><ele>27.0</ele><time>2026-05-01T08:16:46.094Z</time></trkpt><trkpt lat="44.184757" lon="12.1191366"><ele>27.142857142857142</ele><time>2026-05-01T08:16:55.139Z</time></trkpt><trkpt lat="44.1847083" lon="12.119228"><ele>27.285714285714285</ele><time>2026-05-01T08:16:59.102Z</time></trkpt><trkpt lat="44.1846977" lon="12.1193202"><ele>27.42857142857143</ele><time>2026-05-01T08:17:06.112Z</time></trkpt><trkpt lat="44.1846682" lon="12.1194072"><ele>27.57142857142857</ele><time>2026-05-01T08:17:11.091Z</time></trkpt><trkpt lat="44.1846199" lon="12.1194971"><ele>27.714285714285715</ele><time>2026-05-01T08:17:15.059Z</time></trkpt><trkpt lat="44.1845804" lon="12.1195723"><ele>27.857142857142858</ele><time>2026-05-01T08:17:19.119Z</time></trkpt><trkpt lat="44.1845431" lon="12.1196607"><ele>28.0</ele><time>2026-05-01T08:17:24.098Z</time></trkpt><trkpt lat="44.1845117" lon="12.1197441"><ele>28.0</ele><time>2026-05-01T08:17:30.093Z</time></trkpt><trkpt lat="44.1844885" lon="12.1198279"><ele>28.0</ele><time>2026-05-01T08:17:36.108Z</time></trkpt><trkpt lat="44.1844418" lon="12.1199076"><ele>28.0</ele><time>2026-05-01T08:17:41.167Z</time></trkpt><trkpt lat="44.1844215" lon="12.120003"><ele>28.0</ele><time>2026-05-01T08:17:47.162Z</time></trkpt><trkpt lat="44.1843913" lon="12.1200938"><ele>28.0</ele><time>2026-05-01T08:17:54.072Z</time></trkpt><trkpt lat="44.1843638" lon="12.1201862"><ele>28.0</ele><time>2026-05-01T08:18:00.068Z</time></trkpt><trkpt lat="44.1843328" lon="12.1202658"><ele>28.0</ele><time>2026-05-01T08:18:06.062Z</time></trkpt><trkpt lat="44.1843676" lon="12.1203519"><ele>28.0</ele><time>2026-05-01T08:18:13.074Z</time></trkpt><trkpt lat="44.1843729" lon="12.1204477"><ele>28.0</ele><time>2026-05-01T08:18:23.133Z</time></trkpt><trkpt lat="44.184386" lon="12.1205343"><ele>28.0</ele><time>2026-05-01T08:18:29.128Z</time></trkpt><trkpt lat="44.1844055" lon="12.1206262"><ele>28.0</ele><time>2026-05-01T08:18:34.106Z</time></trkpt><trkpt lat="44.1843841" lon="12.1207096"><ele>28.0</ele><time>2026-05-01T08:18:40.102Z</time></trkpt><trkpt lat="44.1843537" lon="12.1207876"><ele>28.0</ele><time>2026-05-01T08:18:49.144Z</time></trkpt><trkpt lat="44.184314" lon="12.1208682"><ele>28.0</ele><time>2026-05-01T08:18:56.059Z</time></trkpt><trkpt lat="44.1842703" lon="12.1209497"><ele>28.285714285714285</ele><time>2026-05-01T08:19:01.136Z</time></trkpt><trkpt lat="44.1842465" lon="12.1210426"><ele>28.57142857142857</ele><time>2026-05-01T08:19:06.113Z</time></trkpt><trkpt lat="44.184223" lon="12.121126"><ele>28.857142857142858</ele><time>2026-05-01T08:19:12.11Z</time></trkpt><trkpt lat="44.1841948" lon="12.1212237"><ele>29.142857142857142</ele><time>2026-05-01T08:19:18.105Z</time></trkpt><trkpt lat="44.1841633" lon="12.1213063"><ele>29.428571428571427</ele><time>2026-05-01T08:19:23.149Z</time></trkpt><trkpt lat="44.184128" lon="12.1213843"><ele>29.714285714285715</ele><time>2026-05-01T08:19:29.067Z</time></trkpt><trkpt lat="44.1840945" lon="12.1214655"><ele>30.0</ele><time>2026-05-01T08:19:33.142Z</time></trkpt><trkpt lat="44.1840674" lon="12.1215473"><ele>30.142857142857146</ele><time>2026-05-01T08:19:39.138Z</time></trkpt><trkpt lat="44.1840064" lon="12.1216083"><ele>30.285714285714285</ele><time>2026-05-01T08:19:46.149Z</time></trkpt><trkpt lat="44.183948" lon="12.1216455"><ele>30.42857142857143</ele><time>2026-05-01T08:19:50.112Z</time></trkpt><trkpt lat="44.183899" lon="12.1217069"><ele>30.571428571428573</ele><time>2026-05-01T08:20:00.069Z</time></trkpt><trkpt lat="44.1838324" lon="12.1217266"><ele>30.714285714285715</ele><time>2026-05-01T08:20:07.08Z</time></trkpt><trkpt lat="44.183767" lon="12.1217147"><ele>30.857142857142858</ele><time>2026-05-01T08:20:13.076Z</time></trkpt><trkpt lat="44.1837079" lon="12.1216826"><ele>31.0</ele><time>2026-05-01T08:20:19.07Z</time></trkpt><trkpt lat="44.1836414" lon="12.1216709"><ele>31.0</ele><time>2026-05-01T08:20:27.099Z</time></trkpt><trkpt lat="44.1835752" lon="12.1217235"><ele>31.000000000000004</ele><time>2026-05-01T08:20:33.109Z</time></trkpt><trkpt lat="44.183513" lon="12.1217538"><ele>31.0</ele><time>2026-05-01T08:20:36.142Z</time></trkpt><trkpt lat="44.183461" lon="12.1218114"><ele>31.0</ele><time>2026-05-01T08:20:42.137Z</time></trkpt><trkpt lat="44.1834348" lon="12.1219032"><ele>31.000000000000004</ele><time>2026-05-01T08:20:48.128Z</time></trkpt><trkpt lat="44.1834025" lon="12.1219954"><ele>31.0</ele><time>2026-05-01T08:20:55.029Z</time></trkpt><trkpt lat="44.1833744" lon="12.1220842"><ele>31.0</ele><time>2026-05-01T08:21:00.123Z</time></trkpt><trkpt lat="44.1833458" lon="12.1221677"><ele>31.0</ele><time>2026-05-01T08:21:08.15Z</time></trkpt><trkpt lat="44.1833146" lon="12.1222547"><ele>31.000000000000004</ele><time>2026-05-01T08:21:15.16Z</time></trkpt><trkpt lat="44.1832823" lon="12.1223407"><ele>31.0</ele><time>2026-05-01T08:21:22.07Z</time></trkpt><trkpt lat="44.183239" lon="12.1224132"><ele>31.0</ele><time>2026-05-01T08:21:29.081Z</time></trkpt><trkpt lat="44.1831976" lon="12.1224886"><ele>31.000000000000004</ele><time>2026-05-01T08:21:38.125Z</time></trkpt><trkpt lat="44.1831681" lon="12.1225676"><ele>31.0</ele><time>2026-05-01T08:21:49.1Z</time></trkpt><trkpt lat="44.1830985" lon="12.1225861"><ele>31.0</ele><time>2026-05-01T08:22:01.089Z</time></trkpt><trkpt lat="44.1830383" lon="12.122549"><ele>31.28571428571429</ele><time>2026-05-01T08:22:06.069Z</time></trkpt><trkpt lat="44.1829718" lon="12.1225298"><ele>31.571428571428577</ele><time>2026-05-01T08:22:10.134Z</time></trkpt><trkpt lat="44.1828959" lon="12.122509"><ele>31.857142857142858</ele><time>2026-05-01T08:22:16.128Z</time></trkpt><trkpt lat="44.1828292" lon="12.1224826"><ele>32.142857142857146</ele><time>2026-05-01T08:22:23.14Z</time></trkpt><trkpt lat="44.1827748" lon="12.1224353"><ele>32.42857142857143</ele><time>2026-05-01T08:22:32.082Z</time></trkpt><trkpt lat="44.182714" lon="12.1223945"><ele>32.714285714285715</ele><time>2026-05-01T08:22:39.092Z</time></trkpt><trkpt lat="44.1826535" lon="12.12234"><ele>33.0</ele><time>2026-05-01T08:22:44.072Z</time></trkpt><trkpt lat="44.1825921" lon="12.1222841"><ele>33.0</ele><time>2026-05-01T08:22:51.082Z</time></trkpt><trkpt lat="44.1825148" lon="12.1222582"><ele>33.0</ele><time>2026-05-01T08:22:58.095Z</time></trkpt><trkpt lat="44.1824514" lon="12.1222435"><ele>33.0</ele><time>2026-05-01T08:23:03.073Z</time></trkpt><trkpt lat="44.1823942" lon="12.1221992"><ele>33.0</ele><time>2026-05-01T08:23:09.069Z</time></trkpt><trkpt lat="44.182307" lon="12.1221962"><ele>33.0</ele><time>2026-05-01T08:23:23.091Z</time></trkpt><trkpt lat="44.182233" lon="12.1221816"><ele>33.0</ele><time>2026-05-01T08:23:27.156Z</time></trkpt><trkpt lat="44.1821692" lon="12.1222296"><ele>33.0</ele><time>2026-05-01T08:23:32.033Z</time></trkpt><trkpt lat="44.1821284" lon="12.1223196"><ele>32.714285714285715</ele><time>2026-05-01T08:23:37.112Z</time></trkpt><trkpt lat="44.1820988" lon="12.1224311"><ele>32.42857142857143</ele><time>2026-05-01T08:23:41.076Z</time></trkpt><trkpt lat="44.182081" lon="12.1225303"><ele>32.142857142857146</ele><time>2026-05-01T08:23:45.14Z</time></trkpt><trkpt lat="44.1820503" lon="12.1226223"><ele>31.857142857142858</ele><time>2026-05-01T08:23:51.135Z</time></trkpt><trkpt lat="44.1820114" lon="12.1226975"><ele>31.571428571428577</ele><time>2026-05-01T08:23:56.067Z</time></trkpt><trkpt lat="44.1819744" lon="12.1227875"><ele>31.28571428571429</ele><time>2026-05-01T08:24:02.11Z</time></trkpt><trkpt lat="44.1819482" lon="12.1228773"><ele>31.0</ele><time>2026-05-01T08:24:07.088Z</time></trkpt><trkpt lat="44.1819235" lon="12.1229709"><ele>31.0</ele><time>2026-05-01T08:24:12.068Z</time></trkpt><trkpt lat="44.1818949" lon="12.12307"><ele>31.000000000000004</ele><time>2026-05-01T08:24:17.148Z</time></trkpt><trkpt lat="44.1818677" lon="12.1231593"><ele>31.0</ele><time>2026-05-01T08:24:22.127Z</time></trkpt><trkpt lat="44.1818376" lon="12.1232533"><ele>31.0</ele><time>2026-05-01T08:24:27.106Z</time></trkpt><trkpt lat="44.1818033" lon="12.1233328"><ele>31.000000000000004</ele><time>2026-05-01T08:24:32.109Z</time></trkpt><trkpt lat="44.1817814" lon="12.123419"><ele>31.0</ele><time>2026-05-01T08:24:37.064Z</time></trkpt><trkpt lat="44.181749" lon="12.1234984"><ele>31.0</ele><time>2026-05-01T08:24:42.145Z</time></trkpt><trkpt lat="44.1817041" lon="12.1235697"><ele>30.857142857142858</ele><time>2026-05-01T08:24:47.124Z</time></trkpt><trkpt lat="44.1816701" lon="12.1236447"><ele>30.714285714285715</ele><time>2026-05-01T08:24:52.102Z</time></trkpt><trkpt lat="44.1816239" lon="12.1237268"><ele>30.571428571428573</ele><time>2026-05-01T08:24:58.098Z</time></trkpt><trkpt lat="44.181582" lon="12.1237984"><ele>30.42857142857143</ele><time>2026-05-01T08:25:03.076Z</time></trkpt><trkpt lat="44.1815414" lon="12.1238732"><ele>30.285714285714285</ele><time>2026-05-01T08:25:09.071Z</time></trkpt><trkpt lat="44.1815006" lon="12.1239476"><ele>30.142857142857146</ele><time>2026-05-01T08:25:16.082Z</time></trkpt><trkpt lat="44.181458" lon="12.1240381"><ele>30.0</ele><time>2026-05-01T08:25:27.059Z</time></trkpt><trkpt lat="44.181451" lon="12.1241411"><ele>30.0</ele><time>2026-05-01T08:25:33.17Z</time></trkpt><trkpt lat="44.1814476" lon="12.1242305"><ele>30.0</ele><time>2026-05-01T08:25:38.847Z</time></trkpt><trkpt lat="44.1814442" lon="12.1243204"><ele>30.0</ele><time>2026-05-01T08:25:43.112Z</time></trkpt><trkpt lat="44.1814403" lon="12.1244133"><ele>30.0</ele><time>2026-05-01T08:25:48.091Z</time></trkpt><trkpt lat="44.1814357" lon="12.1245101"><ele>30.0</ele><time>2026-05-01T08:25:52.156Z</time></trkpt><trkpt lat="44.181411" lon="12.124592"><ele>30.0</ele><time>2026-05-01T08:25:57.134Z</time></trkpt><trkpt lat="44.1813984" lon="12.1246972"><ele>30.0</ele><time>2026-05-01T08:26:03.13Z</time></trkpt><trkpt lat="44.1813831" lon="12.1247846"><ele>30.0</ele><time>2026-05-01T08:26:08.109Z</time></trkpt><trkpt lat="44.181367" lon="12.1248883"><ele>30.0</ele><time>2026-05-01T08:26:13.087Z</time></trkpt><trkpt lat="44.1813523" lon="12.1249744"><ele>30.0</ele><time>2026-05-01T08:26:17.152Z</time></trkpt><trkpt lat="44.1813364" lon="12.1250702"><ele>30.0</ele><time>2026-05-01T08:26:22.132Z</time></trkpt><trkpt lat="44.1813173" lon="12.1251642"><ele>30.0</ele><time>2026-05-01T08:26:27.111Z</time></trkpt><trkpt lat="44.1813064" lon="12.1252679"><ele>30.0</ele><time>2026-05-01T08:26:33.106Z</time></trkpt><trkpt lat="44.1812951" lon="12.1253579"><ele>30.0</ele><time>2026-05-01T08:26:38.085Z</time></trkpt><trkpt lat="44.181288" lon="12.1254615"><ele>30.0</ele><time>2026-05-01T08:26:44.168Z</time></trkpt><trkpt lat="44.1812513" lon="12.1255392"><ele>30.0</ele><time>2026-05-01T08:26:49.06Z</time></trkpt><trkpt lat="44.1811949" lon="12.1255925"><ele>30.0</ele><time>2026-05-01T08:26:54.14Z</time></trkpt><trkpt lat="44.1811307" lon="12.125666"><ele>30.0</ele><time>2026-05-01T08:27:00.135Z</time></trkpt><trkpt lat="44.181085" lon="12.1257484"><ele>30.0</ele><time>2026-05-01T08:27:07.146Z</time></trkpt><trkpt lat="44.1810597" lon="12.1258306"><ele>30.0</ele><time>2026-05-01T08:27:12.167Z</time></trkpt><trkpt lat="44.1810466" lon="12.1259247"><ele>30.0</ele><time>2026-05-01T08:27:16.088Z</time></trkpt><trkpt lat="44.1810343" lon="12.1260189"><ele>29.857142857142858</ele><time>2026-05-01T08:27:21.169Z</time></trkpt><trkpt lat="44.1810013" lon="12.1261153"><ele>29.714285714285715</ele><time>2026-05-01T08:27:28.168Z</time></trkpt><trkpt lat="44.18097" lon="12.1261958"><ele>29.571428571428573</ele><time>2026-05-01T08:27:34.075Z</time></trkpt><trkpt lat="44.180946" lon="12.1262854"><ele>29.42857142857143</ele><time>2026-05-01T08:27:38.138Z</time></trkpt><trkpt lat="44.1808852" lon="12.1263224"><ele>29.285714285714285</ele><time>2026-05-01T08:27:42.125Z</time></trkpt><trkpt lat="44.1808233" lon="12.1263063"><ele>29.142857142857146</ele><time>2026-05-01T08:27:45.151Z</time></trkpt><trkpt lat="44.1807439" lon="12.1262946"><ele>29.000000000000004</ele><time>2026-05-01T08:27:50.13Z</time></trkpt><trkpt lat="44.1806711" lon="12.1262906"><ele>29.000000000000004</ele><time>2026-05-01T08:27:56.124Z</time></trkpt><trkpt lat="44.180611" lon="12.1262622"><ele>29.0</ele><time>2026-05-01T08:28:01.103Z</time></trkpt><trkpt lat="44.1805437" lon="12.1262275"><ele>29.000000000000004</ele><time>2026-05-01T08:28:06.011Z</time></trkpt><trkpt lat="44.1804741" lon="12.1261875"><ele>29.000000000000004</ele><time>2026-05-01T08:28:11.063Z</time></trkpt><trkpt lat="44.1804133" lon="12.1261557"><ele>29.0</ele><time>2026-05-01T08:28:16.144Z</time></trkpt><trkpt lat="44.1803501" lon="12.1261188"><ele>29.000000000000004</ele><time>2026-05-01T08:28:22.139Z</time></trkpt><trkpt lat="44.1802852" lon="12.1260917"><ele>29.000000000000004</ele><time>2026-05-01T08:28:27.968Z</time></trkpt><trkpt lat="44.1802178" lon="12.1260868"><ele>29.000000000000004</ele><time>2026-05-01T08:28:34.129Z</time></trkpt><trkpt lat="44.1801506" lon="12.126079"><ele>29.0</ele><time>2026-05-01T08:28:39.168Z</time></trkpt><trkpt lat="44.1800941" lon="12.1261264"><ele>29.000000000000004</ele><time>2026-05-01T08:28:45.103Z</time></trkpt><trkpt lat="44.1800292" lon="12.1261342"><ele>29.000000000000004</ele><time>2026-05-01T08:28:51.17Z</time></trkpt><trkpt lat="44.1799887" lon="12.1262073"><ele>29.0</ele><time>2026-05-01T08:28:57.094Z</time></trkpt><trkpt lat="44.1799834" lon="12.1263198"><ele>29.000000000000004</ele><time>2026-05-01T08:29:05.122Z</time></trkpt><trkpt lat="44.1799772" lon="12.1264175"><ele>29.000000000000004</ele><time>2026-05-01T08:29:09.089Z</time></trkpt><trkpt lat="44.1799654" lon="12.126513"><ele>29.142857142857146</ele><time>2026-05-01T08:29:15.081Z</time></trkpt><trkpt lat="44.1799482" lon="12.1266039"><ele>29.285714285714285</ele><time>2026-05-01T08:29:20.059Z</time></trkpt><trkpt lat="44.1799274" lon="12.1266951"><ele>29.42857142857143</ele><time>2026-05-01T08:29:24.023Z</time></trkpt><trkpt lat="44.1798738" lon="12.1267595"><ele>29.571428571428573</ele><time>2026-05-01T08:29:29.104Z</time></trkpt><trkpt lat="44.1798176" lon="12.1268189"><ele>29.714285714285715</ele><time>2026-05-01T08:29:35.099Z</time></trkpt><trkpt lat="44.1797785" lon="12.1268976"><ele>29.857142857142858</ele><time>2026-05-01T08:29:41.094Z</time></trkpt><trkpt lat="44.1797357" lon="12.1269738"><ele>30.0</ele><time>2026-05-01T08:29:47.09Z</time></trkpt><trkpt lat="44.1797085" lon="12.1270602"><ele>30.0</ele><time>2026-05-01T08:29:54.101Z</time></trkpt><trkpt lat="44.1796828" lon="12.1271532"><ele>30.0</ele><time>2026-05-01T08:30:01.049Z</time></trkpt><trkpt lat="44.1796734" lon="12.1272482"><ele>30.0</ele><time>2026-05-01T08:30:07.108Z</time></trkpt><trkpt lat="44.1796703" lon="12.1273382"><ele>30.0</ele><time>2026-05-01T08:30:11.071Z</time></trkpt><trkpt lat="44.1796586" lon="12.1274364"><ele>30.0</ele><time>2026-05-01T08:30:15.136Z</time></trkpt><trkpt lat="44.1796284" lon="12.1275289"><ele>30.0</ele><time>2026-05-01T08:30:20.126Z</time></trkpt><trkpt lat="44.1796068" lon="12.1276207"><ele>30.0</ele><time>2026-05-01T08:30:28.141Z</time></trkpt><trkpt lat="44.179615" lon="12.1277159"><ele>30.0</ele><time>2026-05-01T08:30:35.153Z</time></trkpt><trkpt lat="44.1796304" lon="12.1278144"><ele>30.0</ele><time>2026-05-01T08:30:41.149Z</time></trkpt><trkpt lat="44.1796234" lon="12.1279263"><ele>30.0</ele><time>2026-05-01T08:30:46.128Z</time></trkpt><trkpt lat="44.1796275" lon="12.1280296"><ele>30.0</ele><time>2026-05-01T08:30:51.107Z</time></trkpt><trkpt lat="44.1796378" lon="12.128138"><ele>30.0</ele><time>2026-05-01T08:30:58.118Z</time></trkpt><trkpt lat="44.1796216" lon="12.128229"><ele>30.0</ele><time>2026-05-01T08:31:05.131Z</time></trkpt><trkpt lat="44.1795892" lon="12.1283047"><ele>30.0</ele><time>2026-05-01T08:31:09.093Z</time></trkpt><trkpt lat="44.1795645" lon="12.1283988"><ele>30.0</ele><time>2026-05-01T08:31:15.088Z</time></trkpt><trkpt lat="44.1795408" lon="12.1284991"><ele>30.0</ele><time>2026-05-01T08:31:22.101Z</time></trkpt><trkpt lat="44.1795129" lon="12.1285799"><ele>30.0</ele><time>2026-05-01T08:31:28.096Z</time></trkpt><trkpt lat="44.1795027" lon="12.128675"><ele>30.0</ele><time>2026-05-01T08:31:34.09Z</time></trkpt><trkpt lat="44.1794875" lon="12.1287705"><ele>30.0</ele><time>2026-05-01T08:31:38.156Z</time></trkpt><trkpt lat="44.179476" lon="12.1288705"><ele>30.0</ele><time>2026-05-01T08:31:44.151Z</time></trkpt><trkpt lat="44.1794386" lon="12.1289563"><ele>30.0</ele><time>2026-05-01T08:31:50.146Z</time></trkpt><trkpt lat="44.1793865" lon="12.1290215"><ele>30.0</ele><time>2026-05-01T08:31:55.15Z</time></trkpt><trkpt lat="44.1793411" lon="12.1290974"><ele>30.0</ele><time>2026-05-01T08:31:59.99Z</time></trkpt><trkpt lat="44.1792902" lon="12.1291576"><ele>30.0</ele><time>2026-05-01T08:32:07.116Z</time></trkpt><trkpt lat="44.1792491" lon="12.1292449"><ele>30.0</ele><time>2026-05-01T08:32:11.079Z</time></trkpt><trkpt lat="44.1792001" lon="12.1293167"><ele>30.0</ele><time>2026-05-01T08:32:18.069Z</time></trkpt><trkpt lat="44.1791291" lon="12.1293427"><ele>30.0</ele><time>2026-05-01T08:32:23.172Z</time></trkpt><trkpt lat="44.1790597" lon="12.1293619"><ele>30.0</ele><time>2026-05-01T08:32:27.028Z</time></trkpt><trkpt lat="44.1789855" lon="12.1293695"><ele>29.714285714285715</ele><time>2026-05-01T08:32:32.008Z</time></trkpt><trkpt lat="44.1789153" lon="12.1293699"><ele>29.428571428571427</ele><time>2026-05-01T08:32:38.11Z</time></trkpt><trkpt lat="44.1788435" lon="12.1293476"><ele>29.142857142857142</ele><time>2026-05-01T08:32:44.105Z</time></trkpt><trkpt lat="44.1787818" lon="12.1293267"><ele>28.857142857142858</ele><time>2026-05-01T08:32:49.084Z</time></trkpt><trkpt lat="44.178715" lon="12.1292795"><ele>28.57142857142857</ele><time>2026-05-01T08:32:55.079Z</time></trkpt><trkpt lat="44.1786562" lon="12.1292405"><ele>28.285714285714285</ele><time>2026-05-01T08:33:00.161Z</time></trkpt><trkpt lat="44.1785968" lon="12.1292098"><ele>28.0</ele><time>2026-05-01T08:33:05.148Z</time></trkpt><trkpt lat="44.1785302" lon="12.1291827"><ele>28.0</ele><time>2026-05-01T08:33:10.118Z</time></trkpt><trkpt lat="44.1784667" lon="12.1291575"><ele>28.0</ele><time>2026-05-01T08:33:17.069Z</time></trkpt><trkpt lat="44.1784011" lon="12.1291372"><ele>28.0</ele><time>2026-05-01T08:33:22.607Z</time></trkpt><trkpt lat="44.1783451" lon="12.1290896"><ele>28.0</ele><time>2026-05-01T08:33:30.15Z</time></trkpt><trkpt lat="44.1782742" lon="12.1290893"><ele>28.0</ele><time>2026-05-01T08:33:36.129Z</time></trkpt><trkpt lat="44.1782035" lon="12.129078"><ele>28.0</ele><time>2026-05-01T08:33:39.092Z</time></trkpt><trkpt lat="44.1781405" lon="12.1290583"><ele>28.0</ele><time>2026-05-01T08:33:43.063Z</time></trkpt><trkpt lat="44.178085" lon="12.1290033"><ele>28.333333333333336</ele><time>2026-05-01T08:33:49.37Z</time></trkpt><trkpt lat="44.1780047" lon="12.1289491"><ele>28.666666666666668</ele><time>2026-05-01T08:34:01.067Z</time></trkpt><trkpt lat="44.177935" lon="12.1288974"><ele>29.0</ele><time>2026-05-01T08:34:05.084Z</time></trkpt><trkpt lat="44.1778748" lon="12.12885"><ele>29.333333333333336</ele><time>2026-05-01T08:34:10.048Z</time></trkpt><trkpt lat="44.1778001" lon="12.1288341"><ele>29.666666666666668</ele><time>2026-05-01T08:34:16.107Z</time></trkpt><trkpt lat="44.177729" lon="12.1287935"><ele>30.0</ele><time>2026-05-01T08:34:21.087Z</time></trkpt><trkpt lat="44.1776643" lon="12.1287614"><ele>30.0</ele><time>2026-05-01T08:34:27.083Z</time></trkpt><trkpt lat="44.1776011" lon="12.1287331"><ele>30.0</ele><time>2026-05-01T08:34:32.163Z</time></trkpt><trkpt lat="44.1775301" lon="12.128711"><ele>30.0</ele><time>2026-05-01T08:34:37.143Z</time></trkpt><trkpt lat="44.1774651" lon="12.1286839"><ele>30.0</ele><time>2026-05-01T08:34:43.138Z</time></trkpt><trkpt lat="44.1774018" lon="12.1286498"><ele>30.0</ele><time>2026-05-01T08:34:49.134Z</time></trkpt><trkpt lat="44.1773367" lon="12.1286156"><ele>30.0</ele><time>2026-05-01T08:34:55.187Z</time></trkpt><trkpt lat="44.1772705" lon="12.1285888"><ele>30.0</ele><time>2026-05-01T08:35:01.166Z</time></trkpt><trkpt lat="44.1772059" lon="12.1285657"><ele>29.857142857142858</ele><time>2026-05-01T08:35:06.104Z</time></trkpt><trkpt lat="44.1771462" lon="12.1285323"><ele>29.714285714285715</ele><time>2026-05-01T08:35:10.981Z</time></trkpt><trkpt lat="44.1770827" lon="12.1284944"><ele>29.571428571428573</ele><time>2026-05-01T08:35:16.062Z</time></trkpt><trkpt lat="44.1770154" lon="12.1284618"><ele>29.42857142857143</ele><time>2026-05-01T08:35:22.159Z</time></trkpt><trkpt lat="44.1769459" lon="12.1284218"><ele>29.285714285714285</ele><time>2026-05-01T08:35:28.145Z</time></trkpt><trkpt lat="44.1768725" lon="12.1283878"><ele>29.142857142857146</ele><time>2026-05-01T08:35:34.144Z</time></trkpt><trkpt lat="44.1768075" lon="12.1283494"><ele>29.000000000000004</ele><time>2026-05-01T08:35:40.145Z</time></trkpt><trkpt lat="44.17674" lon="12.1283112"><ele>29.000000000000004</ele><time>2026-05-01T08:35:46.139Z</time></trkpt><trkpt lat="44.176684" lon="12.1282639"><ele>29.0</ele><time>2026-05-01T08:35:52.135Z</time></trkpt><trkpt lat="44.1766174" lon="12.1282215"><ele>29.000000000000004</ele><time>2026-05-01T08:35:58.13Z</time></trkpt><trkpt lat="44.1765513" lon="12.1281898"><ele>29.000000000000004</ele><time>2026-05-01T08:36:04.125Z</time></trkpt><trkpt lat="44.1764836" lon="12.1281759"><ele>29.0</ele><time>2026-05-01T08:36:09.106Z</time></trkpt><trkpt lat="44.1764196" lon="12.1281575"><ele>29.000000000000004</ele><time>2026-05-01T08:36:15.1Z</time></trkpt><trkpt lat="44.1763477" lon="12.1281455"><ele>29.000000000000004</ele><time>2026-05-01T08:36:21.096Z</time></trkpt><trkpt lat="44.1762781" lon="12.1281019"><ele>29.142857142857146</ele><time>2026-05-01T08:36:27.091Z</time></trkpt><trkpt lat="44.1762147" lon="12.1281261"><ele>29.285714285714285</ele><time>2026-05-01T08:36:35.119Z</time></trkpt><trkpt lat="44.1761694" lon="12.1282055"><ele>29.42857142857143</ele><time>2026-05-01T08:36:41.114Z</time></trkpt><trkpt lat="44.1761436" lon="12.128288"><ele>29.571428571428573</ele><time>2026-05-01T08:36:46.093Z</time></trkpt><trkpt lat="44.1761281" lon="12.1283795"><ele>29.714285714285715</ele><time>2026-05-01T08:36:52.089Z</time></trkpt><trkpt lat="44.1760978" lon="12.1284766"><ele>29.857142857142858</ele><time>2026-05-01T08:36:58.084Z</time></trkpt><trkpt lat="44.1760636" lon="12.1285666"><ele>30.0</ele><time>2026-05-01T08:37:04.079Z</time></trkpt><trkpt lat="44.1760401" lon="12.1286551"><ele>30.0</ele><time>2026-05-01T08:37:10.074Z</time></trkpt><trkpt lat="44.176009" lon="12.128741"><ele>30.0</ele><time>2026-05-01T08:37:16.166Z</time></trkpt><trkpt lat="44.1759744" lon="12.1288233"><ele>30.0</ele><time>2026-05-01T08:37:21.151Z</time></trkpt><trkpt lat="44.175935" lon="12.1289114"><ele>30.0</ele><time>2026-05-01T08:37:27.146Z</time></trkpt><trkpt lat="44.1759203" lon="12.1290078"><ele>30.0</ele><time>2026-05-01T08:37:33.141Z</time></trkpt><trkpt lat="44.1758926" lon="12.1290889"><ele>30.0</ele><time>2026-05-01T08:37:39.136Z</time></trkpt><trkpt lat="44.1758533" lon="12.1291818"><ele>30.0</ele><time>2026-05-01T08:37:45.131Z</time></trkpt><trkpt lat="44.1758256" lon="12.1292615"><ele>29.714285714285715</ele><time>2026-05-01T08:37:50.11Z</time></trkpt><trkpt lat="44.1757853" lon="12.1293496"><ele>29.428571428571427</ele><time>2026-05-01T08:37:56.106Z</time></trkpt><trkpt lat="44.175761" lon="12.1294426"><ele>29.142857142857142</ele><time>2026-05-01T08:38:02.125Z</time></trkpt><trkpt lat="44.1757265" lon="12.1295285"><ele>28.857142857142858</ele><time>2026-05-01T08:38:08.006Z</time></trkpt><trkpt lat="44.175693" lon="12.1296195"><ele>28.57142857142857</ele><time>2026-05-01T08:38:14.091Z</time></trkpt><trkpt lat="44.1756557" lon="12.1297049"><ele>28.285714285714285</ele><time>2026-05-01T08:38:20.087Z</time></trkpt><trkpt lat="44.1756233" lon="12.129797"><ele>28.0</ele><time>2026-05-01T08:38:26.082Z</time></trkpt><trkpt lat="44.1755991" lon="12.1298838"><ele>28.142857142857142</ele><time>2026-05-01T08:38:31.062Z</time></trkpt><trkpt lat="44.1755706" lon="12.1299736"><ele>28.285714285714285</ele><time>2026-05-01T08:38:36.142Z</time></trkpt><trkpt lat="44.1755348" lon="12.1300522"><ele>28.42857142857143</ele><time>2026-05-01T08:38:41.121Z</time></trkpt><trkpt lat="44.175502" lon="12.130136"><ele>28.571428571428573</ele><time>2026-05-01T08:38:46.101Z</time></trkpt><trkpt lat="44.1754778" lon="12.1302179"><ele>28.714285714285715</ele><time>2026-05-01T08:38:51.566Z</time></trkpt><trkpt lat="44.1754502" lon="12.1303057"><ele>28.85714285714286</ele><time>2026-05-01T08:38:57.075Z</time></trkpt><trkpt lat="44.1754214" lon="12.1303872"><ele>29.000000000000004</ele><time>2026-05-01T08:39:03.071Z</time></trkpt><trkpt lat="44.1753913" lon="12.130467"><ele>29.000000000000004</ele><time>2026-05-01T08:39:09.066Z</time></trkpt><trkpt lat="44.1753365" lon="12.1305209"><ele>29.0</ele><time>2026-05-01T08:39:14.147Z</time></trkpt><trkpt lat="44.175271" lon="12.130542"><ele>29.000000000000004</ele><time>2026-05-01T08:39:19.127Z</time></trkpt><trkpt lat="44.1752002" lon="12.1305633"><ele>29.000000000000004</ele><time>2026-05-01T08:39:24.105Z</time></trkpt><trkpt lat="44.1751234" lon="12.1305808"><ele>29.0</ele><time>2026-05-01T08:39:28.148Z</time></trkpt><trkpt lat="44.1750485" lon="12.1305643"><ele>29.000000000000004</ele><time>2026-05-01T08:39:33.15Z</time></trkpt><trkpt lat="44.174985" lon="12.1305249"><ele>29.000000000000004</ele><time>2026-05-01T08:39:38.129Z</time></trkpt><trkpt lat="44.1749166" lon="12.1304817"><ele>29.000000000000004</ele><time>2026-05-01T08:39:44.124Z</time></trkpt><trkpt lat="44.174849" lon="12.1304417"><ele>29.0</ele><time>2026-05-01T08:39:50.119Z</time></trkpt><trkpt lat="44.1747867" lon="12.1303918"><ele>29.000000000000004</ele><time>2026-05-01T08:39:56.115Z</time></trkpt><trkpt lat="44.1747277" lon="12.13035"><ele>29.000000000000004</ele><time>2026-05-01T08:40:01.095Z</time></trkpt><trkpt lat="44.174669" lon="12.1303122"><ele>29.0</ele><time>2026-05-01T08:40:06.989Z</time></trkpt><trkpt lat="44.1746071" lon="12.130271"><ele>29.000000000000004</ele><time>2026-05-01T08:40:13.085Z</time></trkpt><trkpt lat="44.1745499" lon="12.1302111"><ele>29.000000000000004</ele><time>2026-05-01T08:40:19.081Z</time></trkpt><trkpt lat="44.1744948" lon="12.1301471"><ele>29.000000000000004</ele><time>2026-05-01T08:40:26.093Z</time></trkpt><trkpt lat="44.1744253" lon="12.1301087"><ele>29.0</ele><time>2026-05-01T08:40:31.072Z</time></trkpt><trkpt lat="44.1743524" lon="12.1300594"><ele>29.000000000000004</ele><time>2026-05-01T08:40:38.083Z</time></trkpt><trkpt lat="44.1742925" lon="12.1300222"><ele>29.000000000000004</ele><time>2026-05-01T08:40:43.063Z</time></trkpt><trkpt lat="44.1742374" lon="12.1299741"><ele>29.0</ele><time>2026-05-01T08:40:48.144Z</time></trkpt><trkpt lat="44.1741839" lon="12.1299241"><ele>29.000000000000004</ele><time>2026-05-01T08:40:53.123Z</time></trkpt><trkpt lat="44.1741269" lon="12.1298664"><ele>29.000000000000004</ele><time>2026-05-01T08:41:00.968Z</time></trkpt><trkpt lat="44.1740568" lon="12.1298408"><ele>29.142857142857146</ele><time>2026-05-01T08:41:07.146Z</time></trkpt><trkpt lat="44.1739997" lon="12.1297993"><ele>29.285714285714285</ele><time>2026-05-01T08:41:12.125Z</time></trkpt><trkpt lat="44.1739332" lon="12.1297543"><ele>29.42857142857143</ele><time>2026-05-01T08:41:17.105Z</time></trkpt><trkpt lat="44.1738749" lon="12.1297175"><ele>29.571428571428573</ele><time>2026-05-01T08:41:22.084Z</time></trkpt><trkpt lat="44.1738146" lon="12.1296794"><ele>29.714285714285715</ele><time>2026-05-01T08:41:27.062Z</time></trkpt><trkpt lat="44.1737454" lon="12.1296702"><ele>29.857142857142858</ele><time>2026-05-01T08:41:33.16Z</time></trkpt><trkpt lat="44.1736765" lon="12.1296531"><ele>30.0</ele><time>2026-05-01T08:41:39.108Z</time></trkpt><trkpt lat="44.1736175" lon="12.1296148"><ele>30.0</ele><time>2026-05-01T08:41:44.135Z</time></trkpt><trkpt lat="44.1735618" lon="12.1295674"><ele>30.0</ele><time>2026-05-01T08:41:49.114Z</time></trkpt><trkpt lat="44.1735114" lon="12.1295056"><ele>30.0</ele><time>2026-05-01T08:41:54.093Z</time></trkpt><trkpt lat="44.1734545" lon="12.1294648"><ele>30.0</ele><time>2026-05-01T08:41:59.071Z</time></trkpt><trkpt lat="44.1733922" lon="12.1294245"><ele>30.0</ele><time>2026-05-01T08:42:05.068Z</time></trkpt><trkpt lat="44.1733216" lon="12.1294015"><ele>30.0</ele><time>2026-05-01T08:42:11.063Z</time></trkpt><trkpt lat="44.173258" lon="12.1293933"><ele>30.0</ele><time>2026-05-01T08:42:16.144Z</time></trkpt><trkpt lat="44.1731861" lon="12.1293849"><ele>30.285714285714285</ele><time>2026-05-01T08:42:22.105Z</time></trkpt><trkpt lat="44.1731268" lon="12.1293498"><ele>30.57142857142857</ele><time>2026-05-01T08:42:27.118Z</time></trkpt><trkpt lat="44.1730662" lon="12.1293226"><ele>30.857142857142854</ele><time>2026-05-01T08:42:33.114Z</time></trkpt><trkpt lat="44.1729987" lon="12.1293003"><ele>31.142857142857142</ele><time>2026-05-01T08:42:39.109Z</time></trkpt><trkpt lat="44.1729305" lon="12.1292802"><ele>31.428571428571423</ele><time>2026-05-01T08:42:45.105Z</time></trkpt><trkpt lat="44.172869" lon="12.1292549"><ele>31.71428571428571</ele><time>2026-05-01T08:42:51.1Z</time></trkpt><trkpt lat="44.1728031" lon="12.1292347"><ele>32.0</ele><time>2026-05-01T08:42:58.111Z</time></trkpt><trkpt lat="44.1727413" lon="12.1292165"><ele>32.0</ele><time>2026-05-01T08:43:04.107Z</time></trkpt><trkpt lat="44.1726808" lon="12.1291862"><ele>31.999999999999996</ele><time>2026-05-01T08:43:09.085Z</time></trkpt><trkpt lat="44.1726272" lon="12.129124"><ele>32.0</ele><time>2026-05-01T08:43:14.064Z</time></trkpt><trkpt lat="44.1725796" lon="12.1290649"><ele>32.0</ele><time>2026-05-01T08:43:21.165Z</time></trkpt><trkpt lat="44.1725161" lon="12.1290478"><ele>31.999999999999996</ele><time>2026-05-01T08:43:28.044Z</time></trkpt><trkpt lat="44.1724514" lon="12.1290072"><ele>32.0</ele><time>2026-05-01T08:43:34.084Z</time></trkpt><trkpt lat="44.172381" lon="12.1290051"><ele>32.0</ele><time>2026-05-01T08:43:39.062Z</time></trkpt><trkpt lat="44.1723125" lon="12.1290161"><ele>32.857142857142854</ele><time>2026-05-01T08:43:47.089Z</time></trkpt><trkpt lat="44.1722457" lon="12.1290469"><ele>33.71428571428571</ele><time>2026-05-01T08:43:56.133Z</time></trkpt><trkpt lat="44.172168" lon="12.1291355"><ele>34.57142857142857</ele><time>2026-05-01T08:44:27.045Z</time></trkpt><trkpt lat="44.1721037" lon="12.1291733"><ele>35.42857142857143</ele><time>2026-05-01T08:44:40.132Z</time></trkpt><trkpt lat="44.1720428" lon="12.1292207"><ele>36.28571428571429</ele><time>2026-05-01T08:44:47.046Z</time></trkpt><trkpt lat="44.171981" lon="12.1292599"><ele>37.14285714285714</ele><time>2026-05-01T08:44:53.14Z</time></trkpt><trkpt lat="44.171919" lon="12.1293054"><ele>38.0</ele><time>2026-05-01T08:45:00.151Z</time></trkpt><trkpt lat="44.1718504" lon="12.1293502"><ele>38.0</ele><time>2026-05-01T08:45:05.785Z</time></trkpt><trkpt lat="44.1717907" lon="12.1293924"><ele>38.0</ele><time>2026-05-01T08:45:09.309Z</time></trkpt><trkpt lat="44.1717399" lon="12.1294447"><ele>38.0</ele><time>2026-05-01T08:45:12.847Z</time></trkpt><trkpt lat="44.1716891" lon="12.1295122"><ele>38.0</ele><time>2026-05-01T08:45:19.839Z</time></trkpt><trkpt lat="44.1716725" lon="12.1296109"><ele>38.0</ele><time>2026-05-01T08:45:26.096Z</time></trkpt><trkpt lat="44.1716102" lon="12.1296332"><ele>38.0</ele><time>2026-05-01T08:45:32.093Z</time></trkpt><trkpt lat="44.1715453" lon="12.129645"><ele>38.0</ele><time>2026-05-01T08:45:36.067Z</time></trkpt><trkpt lat="44.1714737" lon="12.1296609"><ele>37.42857142857142</ele><time>2026-05-01T08:45:41.136Z</time></trkpt><trkpt lat="44.1714046" lon="12.1296871"><ele>36.85714285714286</ele><time>2026-05-01T08:45:46.115Z</time></trkpt><trkpt lat="44.1713355" lon="12.1297314"><ele>36.285714285714285</ele><time>2026-05-01T08:45:52.111Z</time></trkpt><trkpt lat="44.1712731" lon="12.1297728"><ele>35.71428571428571</ele><time>2026-05-01T08:45:58.106Z</time></trkpt><trkpt lat="44.1712054" lon="12.1297945"><ele>35.14285714285714</ele><time>2026-05-01T08:46:05.118Z</time></trkpt><trkpt lat="44.1711457" lon="12.1298364"><ele>34.57142857142857</ele><time>2026-05-01T08:46:13.146Z</time></trkpt><trkpt lat="44.1710917" lon="12.1298955"><ele>34.0</ele><time>2026-05-01T08:46:26.153Z</time></trkpt><trkpt lat="44.1710252" lon="12.1299143"><ele>33.99999999999999</ele><time>2026-05-01T08:46:35.095Z</time></trkpt><trkpt lat="44.170961" lon="12.1299347"><ele>34.0</ele><time>2026-05-01T08:46:44.138Z</time></trkpt><trkpt lat="44.1708935" lon="12.1299381"><ele>34.0</ele><time>2026-05-01T08:46:56.063Z</time></trkpt><trkpt lat="44.1708304" lon="12.1299491"><ele>34.0</ele><time>2026-05-01T08:47:02.124Z</time></trkpt><trkpt lat="44.1707614" lon="12.1299623"><ele>34.0</ele><time>2026-05-01T08:47:07.103Z</time></trkpt><trkpt lat="44.1706938" lon="12.1299465"><ele>33.99999999999999</ele><time>2026-05-01T08:47:13.099Z</time></trkpt><trkpt lat="44.1706226" lon="12.1299508"><ele>34.0</ele><time>2026-05-01T08:47:20.11Z</time></trkpt><trkpt lat="44.1705576" lon="12.1299754"><ele>33.857142857142854</ele><time>2026-05-01T08:47:25.09Z</time></trkpt><trkpt lat="44.170492" lon="12.1299859"><ele>33.714285714285715</ele><time>2026-05-01T08:47:30.143Z</time></trkpt><trkpt lat="44.1704205" lon="12.1300085"><ele>33.57142857142857</ele><time>2026-05-01T08:47:38.097Z</time></trkpt><trkpt lat="44.1703563" lon="12.1300244"><ele>33.42857142857143</ele><time>2026-05-01T08:47:43.076Z</time></trkpt><trkpt lat="44.1702848" lon="12.1300257"><ele>33.285714285714285</ele><time>2026-05-01T08:47:47.744Z</time></trkpt><trkpt lat="44.1702212" lon="12.1300349"><ele>33.14285714285714</ele><time>2026-05-01T08:47:52.12Z</time></trkpt><trkpt lat="44.1701546" lon="12.1300496"><ele>33.0</ele><time>2026-05-01T08:47:57.109Z</time></trkpt><trkpt lat="44.1700911" lon="12.1300377"><ele>33.0</ele><time>2026-05-01T08:48:02.079Z</time></trkpt><trkpt lat="44.1700186" lon="12.1300366"><ele>33.0</ele><time>2026-05-01T08:48:07.16Z</time></trkpt><trkpt lat="44.1699535" lon="12.1300326"><ele>33.0</ele><time>2026-05-01T08:48:12.139Z</time></trkpt><trkpt lat="44.1698918" lon="12.1300531"><ele>33.0</ele><time>2026-05-01T08:48:17.118Z</time></trkpt><trkpt lat="44.1698241" lon="12.1300691"><ele>33.0</ele><time>2026-05-01T08:48:22.098Z</time></trkpt><trkpt lat="44.169755" lon="12.1300859"><ele>33.0</ele><time>2026-05-01T08:48:28.093Z</time></trkpt><trkpt lat="44.1696846" lon="12.1301054"><ele>33.0</ele><time>2026-05-01T08:48:34.089Z</time></trkpt><trkpt lat="44.1696208" lon="12.1301493"><ele>33.0</ele><time>2026-05-01T08:48:39.068Z</time></trkpt><trkpt lat="44.1695521" lon="12.1301821"><ele>33.0</ele><time>2026-05-01T08:48:45.063Z</time></trkpt><trkpt lat="44.169477" lon="12.1301615"><ele>33.0</ele><time>2026-05-01T08:48:51.159Z</time></trkpt><trkpt lat="44.1693987" lon="12.1301436"><ele>33.0</ele><time>2026-05-01T08:48:55.123Z</time></trkpt><trkpt lat="44.1693334" lon="12.1301339"><ele>33.0</ele><time>2026-05-01T08:48:59.143Z</time></trkpt><trkpt lat="44.1692696" lon="12.1301554"><ele>33.0</ele><time>2026-05-01T08:49:04.066Z</time></trkpt><trkpt lat="44.1692064" lon="12.1301558"><ele>33.0</ele><time>2026-05-01T08:49:09.147Z</time></trkpt><trkpt lat="44.1691368" lon="12.1301562"><ele>33.0</ele><time>2026-05-01T08:49:14.106Z</time></trkpt><trkpt lat="44.1690611" lon="12.1301473"><ele>33.0</ele><time>2026-05-01T08:49:19.105Z</time></trkpt><trkpt lat="44.1689964" lon="12.1301371"><ele>33.0</ele><time>2026-05-01T08:49:24.084Z</time></trkpt><trkpt lat="44.1689307" lon="12.1301326"><ele>33.0</ele><time>2026-05-01T08:49:30.08Z</time></trkpt><trkpt lat="44.1688641" lon="12.1301327"><ele>33.0</ele><time>2026-05-01T08:49:36.075Z</time></trkpt><trkpt lat="44.1687978" lon="12.1301222"><ele>33.0</ele><time>2026-05-01T08:49:42.128Z</time></trkpt><trkpt lat="44.1687307" lon="12.1301344"><ele>33.0</ele><time>2026-05-01T08:49:48.066Z</time></trkpt><trkpt lat="44.1686694" lon="12.1301729"><ele>33.0</ele><time>2026-05-01T08:49:55.076Z</time></trkpt><trkpt lat="44.1686044" lon="12.1301537"><ele>33.0</ele><time>2026-05-01T08:50:01.073Z</time></trkpt><trkpt lat="44.1685331" lon="12.1301356"><ele>33.0</ele><time>2026-05-01T08:50:08.084Z</time></trkpt><trkpt lat="44.1684617" lon="12.1301411"><ele>33.0</ele><time>2026-05-01T08:50:12.149Z</time></trkpt><trkpt lat="44.1683923" lon="12.1301537"><ele>33.0</ele><time>2026-05-01T08:50:16.111Z</time></trkpt><trkpt lat="44.1683174" lon="12.1301685"><ele>33.0</ele><time>2026-05-01T08:50:21.091Z</time></trkpt><trkpt lat="44.1682433" lon="12.1301856"><ele>33.0</ele><time>2026-05-01T08:50:26.172Z</time></trkpt><trkpt lat="44.1681767" lon="12.1302018"><ele>33.0</ele><time>2026-05-01T08:50:31.108Z</time></trkpt><trkpt lat="44.1681119" lon="12.1302209"><ele>33.0</ele><time>2026-05-01T08:50:36.13Z</time></trkpt><trkpt lat="44.1680367" lon="12.1302377"><ele>33.0</ele><time>2026-05-01T08:50:42.126Z</time></trkpt><trkpt lat="44.167973" lon="12.1302455"><ele>33.0</ele><time>2026-05-01T08:50:47.105Z</time></trkpt><trkpt lat="44.1679092" lon="12.1302387"><ele>33.0</ele><time>2026-05-01T08:50:52.083Z</time></trkpt><trkpt lat="44.1678425" lon="12.1302451"><ele>33.0</ele><time>2026-05-01T08:50:57.165Z</time></trkpt><trkpt lat="44.1677778" lon="12.1302352"><ele>33.0</ele><time>2026-05-01T08:51:02.143Z</time></trkpt><trkpt lat="44.1677089" lon="12.1302488"><ele>33.0</ele><time>2026-05-01T08:51:08.139Z</time></trkpt><trkpt lat="44.167639" lon="12.1302604"><ele>33.0</ele><time>2026-05-01T08:51:13.118Z</time></trkpt><trkpt lat="44.1675697" lon="12.1302645"><ele>33.0</ele><time>2026-05-01T08:51:19.044Z</time></trkpt><trkpt lat="44.1675" lon="12.1302825"><ele>33.0</ele><time>2026-05-01T08:51:24.092Z</time></trkpt><trkpt lat="44.1674272" lon="12.1302903"><ele>33.0</ele><time>2026-05-01T08:51:29.071Z</time></trkpt><trkpt lat="44.1673537" lon="12.1303009"><ele>33.0</ele><time>2026-05-01T08:51:35.169Z</time></trkpt><trkpt lat="44.1672801" lon="12.1302927"><ele>33.0</ele><time>2026-05-01T08:51:42.079Z</time></trkpt><trkpt lat="44.16721" lon="12.1302949"><ele>33.14285714285714</ele><time>2026-05-01T08:51:49.09Z</time></trkpt><trkpt lat="44.1671352" lon="12.1303125"><ele>33.285714285714285</ele><time>2026-05-01T08:51:54.069Z</time></trkpt><trkpt lat="44.1670644" lon="12.1303214"><ele>33.42857142857143</ele><time>2026-05-01T08:51:59.149Z</time></trkpt><trkpt lat="44.1669971" lon="12.1303417"><ele>33.57142857142857</ele><time>2026-05-01T08:52:04.129Z</time></trkpt><trkpt lat="44.1669556" lon="12.1304275"><ele>33.714285714285715</ele><time>2026-05-01T08:52:10.068Z</time></trkpt><trkpt lat="44.1669368" lon="12.1305188"><ele>33.857142857142854</ele><time>2026-05-01T08:52:15.103Z</time></trkpt><trkpt lat="44.1669446" lon="12.1306063"><ele>34.0</ele><time>2026-05-01T08:52:21.098Z</time></trkpt><trkpt lat="44.166963" lon="12.1306906"><ele>33.57142857142857</ele><time>2026-05-01T08:52:27.106Z</time></trkpt><trkpt lat="44.166981" lon="12.1307863"><ele>33.14285714285714</ele><time>2026-05-01T08:52:33.09Z</time></trkpt><trkpt lat="44.166986" lon="12.1308788"><ele>32.714285714285715</ele><time>2026-05-01T08:52:38.069Z</time></trkpt><trkpt lat="44.1670087" lon="12.1309665"><ele>32.285714285714285</ele><time>2026-05-01T08:52:43.149Z</time></trkpt><trkpt lat="44.1670228" lon="12.1310632"><ele>31.85714285714286</ele><time>2026-05-01T08:52:49.145Z</time></trkpt><trkpt lat="44.1670355" lon="12.1311536"><ele>31.42857142857143</ele><time>2026-05-01T08:52:55.139Z</time></trkpt><trkpt lat="44.1670614" lon="12.1312401"><ele>31.0</ele><time>2026-05-01T08:53:00.119Z</time></trkpt><trkpt lat="44.1670637" lon="12.1313328"><ele>31.0</ele><time>2026-05-01T08:53:05.099Z</time></trkpt><trkpt lat="44.1670658" lon="12.1314265"><ele>31.000000000000004</ele><time>2026-05-01T08:53:09.987Z</time></trkpt><trkpt lat="44.1670806" lon="12.1315211"><ele>31.0</ele><time>2026-05-01T08:53:15.061Z</time></trkpt><trkpt lat="44.1671028" lon="12.1316088"><ele>31.0</ele><time>2026-05-01T08:53:20.138Z</time></trkpt><trkpt lat="44.1671183" lon="12.1317007"><ele>31.000000000000004</ele><time>2026-05-01T08:53:26.133Z</time></trkpt><trkpt lat="44.1671314" lon="12.1317883"><ele>31.0</ele><time>2026-05-01T08:53:31.111Z</time></trkpt><trkpt lat="44.167149" lon="12.1318818"><ele>31.0</ele><time>2026-05-01T08:53:37.107Z</time></trkpt><trkpt lat="44.1671617" lon="12.1319792"><ele>31.0</ele><time>2026-05-01T08:53:44.119Z</time></trkpt><trkpt lat="44.1671799" lon="12.1320725"><ele>31.000000000000004</ele><time>2026-05-01T08:53:49.097Z</time></trkpt><trkpt lat="44.1672359" lon="12.1321352"><ele>31.0</ele><time>2026-05-01T08:53:55.093Z</time></trkpt><trkpt lat="44.1673041" lon="12.1321058"><ele>31.0</ele><time>2026-05-01T08:54:00.072Z</time></trkpt><trkpt lat="44.1673743" lon="12.1320994"><ele>31.000000000000004</ele><time>2026-05-01T08:54:06.068Z</time></trkpt><trkpt lat="44.1674411" lon="12.1321334"><ele>31.0</ele><time>2026-05-01T08:54:11.105Z</time></trkpt><trkpt lat="44.1674746" lon="12.1322239"><ele>31.0</ele><time>2026-05-01T08:54:17.144Z</time></trkpt><trkpt lat="44.1674928" lon="12.1323186"><ele>31.142857142857146</ele><time>2026-05-01T08:54:22.123Z</time></trkpt><trkpt lat="44.1675166" lon="12.1324112"><ele>31.28571428571429</ele><time>2026-05-01T08:54:28.168Z</time></trkpt><trkpt lat="44.1675223" lon="12.1325076"><ele>31.42857142857143</ele><time>2026-05-01T08:54:33.098Z</time></trkpt><trkpt lat="44.1675275" lon="12.1325965"><ele>31.57142857142857</ele><time>2026-05-01T08:54:37.149Z</time></trkpt><trkpt lat="44.1675312" lon="12.1326906"><ele>31.71428571428571</ele><time>2026-05-01T08:54:41.125Z</time></trkpt><trkpt lat="44.1675357" lon="12.132791"><ele>31.857142857142854</ele><time>2026-05-01T08:54:46.144Z</time></trkpt><trkpt lat="44.1675601" lon="12.1328771"><ele>32.0</ele><time>2026-05-01T08:54:52.099Z</time></trkpt><trkpt lat="44.1675784" lon="12.1329614"><ele>32.0</ele><time>2026-05-01T08:54:57.079Z</time></trkpt><trkpt lat="44.1675907" lon="12.1330496"><ele>31.999999999999996</ele><time>2026-05-01T08:55:02.159Z</time></trkpt><trkpt lat="44.1676035" lon="12.1331372"><ele>32.0</ele><time>2026-05-01T08:55:06.123Z</time></trkpt><trkpt lat="44.1676154" lon="12.1332242"><ele>32.0</ele><time>2026-05-01T08:55:11.102Z</time></trkpt><trkpt lat="44.1676326" lon="12.1333244"><ele>31.999999999999996</ele><time>2026-05-01T08:55:17.097Z</time></trkpt><trkpt lat="44.1676505" lon="12.1334101"><ele>32.0</ele><time>2026-05-01T08:55:22.076Z</time></trkpt><trkpt lat="44.1676618" lon="12.1334966"><ele>32.0</ele><time>2026-05-01T08:55:27.156Z</time></trkpt><trkpt lat="44.1676795" lon="12.1335867"><ele>32.0</ele><time>2026-05-01T08:55:32.136Z</time></trkpt><trkpt lat="44.1676883" lon="12.1336812"><ele>31.999999999999996</ele><time>2026-05-01T08:55:38.131Z</time></trkpt><trkpt lat="44.1677057" lon="12.1337741"><ele>32.0</ele><time>2026-05-01T08:55:44.028Z</time></trkpt><trkpt lat="44.1677242" lon="12.1338746"><ele>32.0</ele><time>2026-05-01T08:55:50.121Z</time></trkpt><trkpt lat="44.1677367" lon="12.1339789"><ele>31.999999999999996</ele><time>2026-05-01T08:55:55.102Z</time></trkpt><trkpt lat="44.1677577" lon="12.1340734"><ele>32.0</ele><time>2026-05-01T08:56:01.097Z</time></trkpt><trkpt lat="44.1677769" lon="12.134175"><ele>32.0</ele><time>2026-05-01T08:56:07.092Z</time></trkpt><trkpt lat="44.1677945" lon="12.134265"><ele>32.0</ele><time>2026-05-01T08:56:13.087Z</time></trkpt><trkpt lat="44.1677953" lon="12.1343709"><ele>31.999999999999996</ele><time>2026-05-01T08:56:18.067Z</time></trkpt><trkpt lat="44.1678077" lon="12.1344572"><ele>32.0</ele><time>2026-05-01T08:56:22.131Z</time></trkpt><trkpt lat="44.1678212" lon="12.1345444"><ele>32.0</ele><time>2026-05-01T08:56:27.105Z</time></trkpt><trkpt lat="44.1678412" lon="12.1346441"><ele>31.999999999999996</ele><time>2026-05-01T08:56:34.123Z</time></trkpt><trkpt lat="44.1678568" lon="12.1347447"><ele>32.0</ele><time>2026-05-01T08:56:39.102Z</time></trkpt><trkpt lat="44.1678652" lon="12.1348471"><ele>32.0</ele><time>2026-05-01T08:56:44.125Z</time></trkpt><trkpt lat="44.1678784" lon="12.1349418"><ele>31.857142857142854</ele><time>2026-05-01T08:56:49.162Z</time></trkpt><trkpt lat="44.1679053" lon="12.1350356"><ele>31.71428571428571</ele><time>2026-05-01T08:56:54.14Z</time></trkpt><trkpt lat="44.1679204" lon="12.1351336"><ele>31.57142857142857</ele><time>2026-05-01T08:57:00.136Z</time></trkpt><trkpt lat="44.1679391" lon="12.1352306"><ele>31.42857142857143</ele><time>2026-05-01T08:57:06.148Z</time></trkpt><trkpt lat="44.1679565" lon="12.1353256"><ele>31.28571428571429</ele><time>2026-05-01T08:57:12.127Z</time></trkpt><trkpt lat="44.1679653" lon="12.135429"><ele>31.142857142857146</ele><time>2026-05-01T08:57:18.123Z</time></trkpt><trkpt lat="44.1679698" lon="12.1355237"><ele>31.0</ele><time>2026-05-01T08:57:23.103Z</time></trkpt><trkpt lat="44.1679834" lon="12.13562"><ele>31.0</ele><time>2026-05-01T08:57:27.987Z</time></trkpt><trkpt lat="44.1680091" lon="12.135702"><ele>31.000000000000004</ele><time>2026-05-01T08:57:33.062Z</time></trkpt><trkpt lat="44.1680208" lon="12.135789"><ele>31.0</ele><time>2026-05-01T08:57:38.141Z</time></trkpt><trkpt lat="44.1680297" lon="12.1358818"><ele>31.0</ele><time>2026-05-01T08:57:43.121Z</time></trkpt><trkpt lat="44.1680381" lon="12.1359747"><ele>31.000000000000004</ele><time>2026-05-01T08:57:48.108Z</time></trkpt><trkpt lat="44.1680523" lon="12.1360649"><ele>31.0</ele><time>2026-05-01T08:57:53.045Z</time></trkpt><trkpt lat="44.168064" lon="12.1361599"><ele>31.0</ele><time>2026-05-01T08:57:58.16Z</time></trkpt><trkpt lat="44.1680781" lon="12.1362492"><ele>31.142857142857146</ele><time>2026-05-01T08:58:03.146Z</time></trkpt><trkpt lat="44.1680907" lon="12.1363415"><ele>31.28571428571429</ele><time>2026-05-01T08:58:09.135Z</time></trkpt><trkpt lat="44.1681086" lon="12.1364342"><ele>31.42857142857143</ele><time>2026-05-01T08:58:14.115Z</time></trkpt><trkpt lat="44.1681226" lon="12.1365373"><ele>31.57142857142857</ele><time>2026-05-01T08:58:19.127Z</time></trkpt><trkpt lat="44.1681164" lon="12.1366264"><ele>31.71428571428571</ele><time>2026-05-01T08:58:24.073Z</time></trkpt><trkpt lat="44.1680636" lon="12.1366783"><ele>31.857142857142854</ele><time>2026-05-01T08:58:30.069Z</time></trkpt><trkpt lat="44.1680004" lon="12.1366966"><ele>32.0</ele><time>2026-05-01T08:58:35.149Z</time></trkpt><trkpt lat="44.1679294" lon="12.1367237"><ele>32.14285714285714</ele><time>2026-05-01T08:58:40.13Z</time></trkpt><trkpt lat="44.1678554" lon="12.1367289"><ele>32.285714285714285</ele><time>2026-05-01T08:58:46.124Z</time></trkpt><trkpt lat="44.1677862" lon="12.136713"><ele>32.42857142857143</ele><time>2026-05-01T08:58:52.12Z</time></trkpt><trkpt lat="44.1677154" lon="12.13671"><ele>32.57142857142857</ele><time>2026-05-01T08:58:58.107Z</time></trkpt><trkpt lat="44.1676508" lon="12.1366951"><ele>32.714285714285715</ele><time>2026-05-01T08:59:03.923Z</time></trkpt><trkpt lat="44.1675805" lon="12.13671"><ele>32.857142857142854</ele><time>2026-05-01T08:59:10.107Z</time></trkpt><trkpt lat="44.1675189" lon="12.1367341"><ele>33.0</ele><time>2026-05-01T08:59:17.119Z</time></trkpt><trkpt lat="44.1674498" lon="12.1367137"><ele>33.0</ele><time>2026-05-01T08:59:28.068Z</time></trkpt><trkpt lat="44.1673787" lon="12.1367088"><ele>33.0</ele><time>2026-05-01T08:59:35.105Z</time></trkpt><trkpt lat="44.1673028" lon="12.1367163"><ele>33.0</ele><time>2026-05-01T08:59:41.101Z</time></trkpt><trkpt lat="44.1672262" lon="12.1367181"><ele>33.0</ele><time>2026-05-01T08:59:47.097Z</time></trkpt><trkpt lat="44.1671499" lon="12.1367324"><ele>33.0</ele><time>2026-05-01T08:59:51.161Z</time></trkpt><trkpt lat="44.1670782" lon="12.136738"><ele>33.0</ele><time>2026-05-01T08:59:55.124Z</time></trkpt><trkpt lat="44.1670195" lon="12.1367734"><ele>33.0</ele><time>2026-05-01T08:59:59.088Z</time></trkpt><trkpt lat="44.1669544" lon="12.1368145"><ele>33.714285714285715</ele><time>2026-05-01T09:00:04.066Z</time></trkpt><trkpt lat="44.1668871" lon="12.1368495"><ele>34.42857142857143</ele><time>2026-05-01T09:00:11.028Z</time></trkpt><trkpt lat="44.1668203" lon="12.1368865"><ele>35.14285714285714</ele><time>2026-05-01T09:00:16.159Z</time></trkpt><trkpt lat="44.1667502" lon="12.1369213"><ele>35.85714285714286</ele><time>2026-05-01T09:00:21.066Z</time></trkpt><trkpt lat="44.1666851" lon="12.1369682"><ele>36.57142857142858</ele><time>2026-05-01T09:00:27.065Z</time></trkpt><trkpt lat="44.1666274" lon="12.1370225"><ele>37.285714285714285</ele><time>2026-05-01T09:00:33.064Z</time></trkpt><trkpt lat="44.1665529" lon="12.137046"><ele>38.0</ele><time>2026-05-01T09:00:39.166Z</time></trkpt><trkpt lat="44.1664843" lon="12.1370613"><ele>38.714285714285715</ele><time>2026-05-01T09:00:44.104Z</time></trkpt><trkpt lat="44.1664155" lon="12.1370994"><ele>39.42857142857143</ele><time>2026-05-01T09:00:49.083Z</time></trkpt><trkpt lat="44.1663491" lon="12.1371371"><ele>40.142857142857146</ele><time>2026-05-01T09:00:54.985Z</time></trkpt><trkpt lat="44.166277" lon="12.1371439"><ele>40.85714285714286</ele><time>2026-05-01T09:01:01.075Z</time></trkpt><trkpt lat="44.1662088" lon="12.1371522"><ele>41.57142857142857</ele><time>2026-05-01T09:01:06.156Z</time></trkpt><trkpt lat="44.1661588" lon="12.1372219"><ele>42.28571428571429</ele><time>2026-05-01T09:01:11.134Z</time></trkpt><trkpt lat="44.1660906" lon="12.1372036"><ele>43.0</ele><time>2026-05-01T09:01:37.165Z</time></trkpt><trkpt lat="44.1660228" lon="12.1372101"><ele>43.00000000000001</ele><time>2026-05-01T09:01:45.075Z</time></trkpt><trkpt lat="44.1659621" lon="12.1372456"><ele>43.0</ele><time>2026-05-01T09:01:52.086Z</time></trkpt><trkpt lat="44.1658972" lon="12.1372686"><ele>43.0</ele><time>2026-05-01T09:01:58.081Z</time></trkpt><trkpt lat="44.1658231" lon="12.1372598"><ele>43.0</ele><time>2026-05-01T09:02:03.163Z</time></trkpt><trkpt lat="44.1657557" lon="12.1372738"><ele>43.0</ele><time>2026-05-01T09:02:07.125Z</time></trkpt><trkpt lat="44.1656973" lon="12.1373153"><ele>43.00000000000001</ele><time>2026-05-01T09:02:12.105Z</time></trkpt><trkpt lat="44.1656287" lon="12.1373295"><ele>43.0</ele><time>2026-05-01T09:02:19.117Z</time></trkpt><trkpt lat="44.1655585" lon="12.1373286"><ele>43.00000000000001</ele><time>2026-05-01T09:02:24.096Z</time></trkpt><trkpt lat="44.1654942" lon="12.137324"><ele>43.0</ele><time>2026-05-01T09:02:29.075Z</time></trkpt><trkpt lat="44.1654228" lon="12.1373459"><ele>43.0</ele><time>2026-05-01T09:02:35.071Z</time></trkpt><trkpt lat="44.1653502" lon="12.1373652"><ele>43.0</ele><time>2026-05-01T09:02:41.066Z</time></trkpt><trkpt lat="44.1652869" lon="12.1373666"><ele>43.0</ele><time>2026-05-01T09:02:46.146Z</time></trkpt><trkpt lat="44.1652182" lon="12.1373475"><ele>43.00000000000001</ele><time>2026-05-01T09:02:53.062Z</time></trkpt><trkpt lat="44.1651531" lon="12.1373324"><ele>43.0</ele><time>2026-05-01T09:02:59.154Z</time></trkpt><trkpt lat="44.1650924" lon="12.1373052"><ele>43.00000000000001</ele><time>2026-05-01T09:03:05.148Z</time></trkpt><trkpt lat="44.165031" lon="12.1372823"><ele>43.0</ele><time>2026-05-01T09:03:10.127Z</time></trkpt><trkpt lat="44.1649575" lon="12.1372726"><ele>43.0</ele><time>2026-05-01T09:03:16.123Z</time></trkpt><trkpt lat="44.1648852" lon="12.1372444"><ele>43.0</ele><time>2026-05-01T09:03:22.088Z</time></trkpt><trkpt lat="44.1648186" lon="12.137227"><ele>43.0</ele><time>2026-05-01T09:03:27.147Z</time></trkpt><trkpt lat="44.164756" lon="12.1372143"><ele>43.00000000000001</ele><time>2026-05-01T09:03:32.076Z</time></trkpt><trkpt lat="44.1646948" lon="12.1371869"><ele>43.0</ele><time>2026-05-01T09:03:37.157Z</time></trkpt><trkpt lat="44.1646347" lon="12.1371492"><ele>42.85714285714286</ele><time>2026-05-01T09:03:42.137Z</time></trkpt><trkpt lat="44.1645675" lon="12.1371171"><ele>42.714285714285715</ele><time>2026-05-01T09:03:47.116Z</time></trkpt><trkpt lat="44.1645019" lon="12.1370805"><ele>42.57142857142857</ele><time>2026-05-01T09:03:51.468Z</time></trkpt><trkpt lat="44.1644389" lon="12.1370397"><ele>42.42857142857143</ele><time>2026-05-01T09:03:56.11Z</time></trkpt><trkpt lat="44.1643668" lon="12.1370225"><ele>42.285714285714285</ele><time>2026-05-01T09:04:02.155Z</time></trkpt><trkpt lat="44.1642964" lon="12.1370002"><ele>42.142857142857146</ele><time>2026-05-01T09:04:09.065Z</time></trkpt><trkpt lat="44.1642299" lon="12.1369556"><ele>42.0</ele><time>2026-05-01T09:04:15.161Z</time></trkpt><trkpt lat="44.1641614" lon="12.1369184"><ele>42.0</ele><time>2026-05-01T09:04:20.126Z</time></trkpt><trkpt lat="44.1640944" lon="12.1368927"><ele>42.0</ele><time>2026-05-01T09:04:25.119Z</time></trkpt><trkpt lat="44.164032" lon="12.1368709"><ele>42.0</ele><time>2026-05-01T09:04:30.025Z</time></trkpt><trkpt lat="44.1639707" lon="12.1368488"><ele>42.0</ele><time>2026-05-01T09:04:35.046Z</time></trkpt><trkpt lat="44.1639048" lon="12.1368268"><ele>42.0</ele><time>2026-05-01T09:04:41.074Z</time></trkpt><trkpt lat="44.163842" lon="12.1367908"><ele>42.0</ele><time>2026-05-01T09:04:46.153Z</time></trkpt><trkpt lat="44.1637854" lon="12.1367263"><ele>42.0</ele><time>2026-05-01T09:04:51.133Z</time></trkpt><trkpt lat="44.16372" lon="12.1366941"><ele>42.142857142857146</ele><time>2026-05-01T09:04:56.113Z</time></trkpt><trkpt lat="44.1636559" lon="12.1366529"><ele>42.285714285714285</ele><time>2026-05-01T09:05:01.092Z</time></trkpt><trkpt lat="44.1635903" lon="12.1366448"><ele>42.42857142857143</ele><time>2026-05-01T09:05:08.103Z</time></trkpt><trkpt lat="44.1635243" lon="12.1366207"><ele>42.57142857142857</ele><time>2026-05-01T09:05:14.084Z</time></trkpt><trkpt lat="44.1634713" lon="12.1365703"><ele>42.714285714285715</ele><time>2026-05-01T09:05:19.077Z</time></trkpt><trkpt lat="44.1634108" lon="12.1365406"><ele>42.85714285714286</ele><time>2026-05-01T09:05:24.157Z</time></trkpt><trkpt lat="44.1633431" lon="12.1364916"><ele>43.0</ele><time>2026-05-01T09:05:30.061Z</time></trkpt><trkpt lat="44.1632813" lon="12.1364321"><ele>42.714285714285715</ele><time>2026-05-01T09:05:36.147Z</time></trkpt><trkpt lat="44.1632215" lon="12.1363884"><ele>42.42857142857143</ele><time>2026-05-01T09:05:42.144Z</time></trkpt><trkpt lat="44.1631534" lon="12.1363706"><ele>42.14285714285714</ele><time>2026-05-01T09:05:49.155Z</time></trkpt><trkpt lat="44.1630915" lon="12.1363386"><ele>41.85714285714286</ele><time>2026-05-01T09:05:55.15Z</time></trkpt><trkpt lat="44.1630228" lon="12.1362971"><ele>41.57142857142857</ele><time>2026-05-01T09:06:01.165Z</time></trkpt><trkpt lat="44.1629549" lon="12.136262"><ele>41.285714285714285</ele><time>2026-05-01T09:06:06.887Z</time></trkpt><trkpt lat="44.1628906" lon="12.1362527"><ele>41.0</ele><time>2026-05-01T09:06:13.135Z</time></trkpt><trkpt lat="44.1628273" lon="12.1362575"><ele>40.99999999999999</ele><time>2026-05-01T09:06:18.114Z</time></trkpt><trkpt lat="44.162764" lon="12.1362353"><ele>41.0</ele><time>2026-05-01T09:06:23.093Z</time></trkpt><trkpt lat="44.1627065" lon="12.1361976"><ele>41.0</ele><time>2026-05-01T09:06:29.088Z</time></trkpt><trkpt lat="44.1626381" lon="12.1361612"><ele>41.0</ele><time>2026-05-01T09:06:34.068Z</time></trkpt><trkpt lat="44.1625662" lon="12.1361371"><ele>41.0</ele><time>2026-05-01T09:06:39.147Z</time></trkpt><trkpt lat="44.162499" lon="12.1361117"><ele>40.99999999999999</ele><time>2026-05-01T09:06:45.044Z</time></trkpt><trkpt lat="44.1624306" lon="12.1360879"><ele>41.0</ele><time>2026-05-01T09:06:50.122Z</time></trkpt><trkpt lat="44.162365" lon="12.1360544"><ele>41.285714285714285</ele><time>2026-05-01T09:06:55.1Z</time></trkpt><trkpt lat="44.1622953" lon="12.1360267"><ele>41.57142857142857</ele><time>2026-05-01T09:07:01.145Z</time></trkpt><trkpt lat="44.1622316" lon="12.1360156"><ele>41.85714285714286</ele><time>2026-05-01T09:07:07.048Z</time></trkpt><trkpt lat="44.1621548" lon="12.1360018"><ele>42.14285714285714</ele><time>2026-05-01T09:07:13.145Z</time></trkpt><trkpt lat="44.1620946" lon="12.1359742"><ele>42.42857142857143</ele><time>2026-05-01T09:07:17.151Z</time></trkpt><trkpt lat="44.1620194" lon="12.1359474"><ele>42.714285714285715</ele><time>2026-05-01T09:07:22.13Z</time></trkpt><trkpt lat="44.1619526" lon="12.1359267"><ele>43.0</ele><time>2026-05-01T09:07:27.066Z</time></trkpt><trkpt lat="44.1618909" lon="12.1359012"><ele>43.00000000000001</ele><time>2026-05-01T09:07:32.088Z</time></trkpt><trkpt lat="44.1618333" lon="12.1358425"><ele>43.0</ele><time>2026-05-01T09:07:40.115Z</time></trkpt><trkpt lat="44.161765" lon="12.135819"><ele>43.0</ele><time>2026-05-01T09:07:47.127Z</time></trkpt><trkpt lat="44.1616977" lon="12.1358008"><ele>43.0</ele><time>2026-05-01T09:07:53.122Z</time></trkpt><trkpt lat="44.1616338" lon="12.1357647"><ele>43.0</ele><time>2026-05-01T09:07:58.101Z</time></trkpt><trkpt lat="44.1615617" lon="12.1357602"><ele>43.00000000000001</ele><time>2026-05-01T09:08:04.096Z</time></trkpt><trkpt lat="44.161492" lon="12.1357626"><ele>43.0</ele><time>2026-05-01T09:08:10.091Z</time></trkpt><trkpt lat="44.1614266" lon="12.1357511"><ele>43.28571428571429</ele><time>2026-05-01T09:08:15.07Z</time></trkpt><trkpt lat="44.16137" lon="12.1357032"><ele>43.57142857142857</ele><time>2026-05-01T09:08:20.151Z</time></trkpt><trkpt lat="44.1612971" lon="12.1356806"><ele>43.85714285714286</ele><time>2026-05-01T09:08:26.145Z</time></trkpt><trkpt lat="44.1612318" lon="12.1356759"><ele>44.142857142857146</ele><time>2026-05-01T09:08:31.125Z</time></trkpt><trkpt lat="44.161166" lon="12.1357014"><ele>44.42857142857143</ele><time>2026-05-01T09:08:36.065Z</time></trkpt><trkpt lat="44.1611005" lon="12.1356975"><ele>44.714285714285715</ele><time>2026-05-01T09:08:40.726Z</time></trkpt><trkpt lat="44.1610393" lon="12.1356762"><ele>45.0</ele><time>2026-05-01T09:08:45.148Z</time></trkpt><trkpt lat="44.1609752" lon="12.1356622"><ele>45.0</ele><time>2026-05-01T09:08:51.143Z</time></trkpt><trkpt lat="44.1609036" lon="12.1356649"><ele>45.0</ele><time>2026-05-01T09:08:57.166Z</time></trkpt><trkpt lat="44.1608388" lon="12.1356544"><ele>45.0</ele><time>2026-05-01T09:09:03.133Z</time></trkpt><trkpt lat="44.1607847" lon="12.1355942"><ele>45.0</ele><time>2026-05-01T09:09:37.07Z</time></trkpt><trkpt lat="44.1607303" lon="12.1355188"><ele>45.0</ele><time>2026-05-01T09:09:42.152Z</time></trkpt><trkpt lat="44.1606994" lon="12.1354415"><ele>45.0</ele><time>2026-05-01T09:09:47.146Z</time></trkpt><trkpt lat="44.1606731" lon="12.1353563"><ele>45.0</ele><time>2026-05-01T09:09:52.11Z</time></trkpt><trkpt lat="44.1606416" lon="12.135276"><ele>46.0</ele><time>2026-05-01T09:09:57.089Z</time></trkpt><trkpt lat="44.1606184" lon="12.1351793"><ele>47.0</ele><time>2026-05-01T09:10:03.688Z</time></trkpt><trkpt lat="44.1605926" lon="12.1350949"><ele>48.0</ele><time>2026-05-01T09:10:09.079Z</time></trkpt><trkpt lat="44.1605672" lon="12.1350037"><ele>49.0</ele><time>2026-05-01T09:10:15.075Z</time></trkpt><trkpt lat="44.1605405" lon="12.134906"><ele>50.0</ele><time>2026-05-01T09:10:21.07Z</time></trkpt><trkpt lat="44.1605101" lon="12.1348085"><ele>51.0</ele><time>2026-05-01T09:10:27.106Z</time></trkpt><trkpt lat="44.1604839" lon="12.134717"><ele>52.0</ele><time>2026-05-01T09:10:33.061Z</time></trkpt><trkpt lat="44.1604572" lon="12.1346279"><ele>52.42857142857142</ele><time>2026-05-01T09:10:39.062Z</time></trkpt><trkpt lat="44.1604175" lon="12.1345346"><ele>52.85714285714286</ele><time>2026-05-01T09:10:45.152Z</time></trkpt><trkpt lat="44.1603729" lon="12.1344515"><ele>53.285714285714285</ele><time>2026-05-01T09:10:52.061Z</time></trkpt><trkpt lat="44.1603292" lon="12.1343722"><ele>53.71428571428571</ele><time>2026-05-01T09:10:58.062Z</time></trkpt><trkpt lat="44.160316" lon="12.1342739"><ele>54.14285714285714</ele><time>2026-05-01T09:11:03.137Z</time></trkpt><trkpt lat="44.1603349" lon="12.1341859"><ele>54.57142857142857</ele><time>2026-05-01T09:11:07.1Z</time></trkpt><trkpt lat="44.1603321" lon="12.134083"><ele>55.0</ele><time>2026-05-01T09:11:12.079Z</time></trkpt><trkpt lat="44.1603116" lon="12.1339888"><ele>55.14285714285714</ele><time>2026-05-01T09:11:17.16Z</time></trkpt><trkpt lat="44.1602922" lon="12.1339021"><ele>55.285714285714285</ele><time>2026-05-01T09:11:22.107Z</time></trkpt><trkpt lat="44.1602825" lon="12.1338063"><ele>55.42857142857143</ele><time>2026-05-01T09:11:27.118Z</time></trkpt><trkpt lat="44.1602694" lon="12.1337197"><ele>55.57142857142857</ele><time>2026-05-01T09:11:32.097Z</time></trkpt><trkpt lat="44.1602367" lon="12.1336299"><ele>55.714285714285715</ele><time>2026-05-01T09:11:38.091Z</time></trkpt><trkpt lat="44.1601838" lon="12.1335608"><ele>55.857142857142854</ele><time>2026-05-01T09:11:45.103Z</time></trkpt><trkpt lat="44.1601357" lon="12.1334905"><ele>56.0</ele><time>2026-05-01T09:11:54.107Z</time></trkpt><trkpt lat="44.1600691" lon="12.1334611"><ele>56.0</ele><time>2026-05-01T09:12:02.071Z</time></trkpt><trkpt lat="44.1600012" lon="12.1334379"><ele>56.0</ele><time>2026-05-01T09:12:07.152Z</time></trkpt><trkpt lat="44.1599495" lon="12.1333877"><ele>56.0</ele><time>2026-05-01T09:12:16.093Z</time></trkpt><trkpt lat="44.1599029" lon="12.1333283"><ele>56.0</ele><time>2026-05-01T09:12:22.088Z</time></trkpt><trkpt lat="44.1598714" lon="12.1334064"><ele>56.0</ele><time>2026-05-01T09:13:18.076Z</time></trkpt><trkpt lat="44.1598087" lon="12.1333849"><ele>56.0</ele><time>2026-05-01T09:13:29.062Z</time></trkpt><trkpt lat="44.1597404" lon="12.1333663"><ele>56.0</ele><time>2026-05-01T09:13:43.073Z</time></trkpt><trkpt lat="44.1596773" lon="12.1333646"><ele>57.42857142857143</ele><time>2026-05-01T09:13:50.083Z</time></trkpt><trkpt lat="44.1596216" lon="12.1333188"><ele>58.85714285714286</ele><time>2026-05-01T09:14:06.139Z</time></trkpt><trkpt lat="44.1595532" lon="12.1333198"><ele>60.285714285714285</ele><time>2026-05-01T09:14:13.149Z</time></trkpt><trkpt lat="44.15949" lon="12.1332767"><ele>61.714285714285715</ele><time>2026-05-01T09:14:21.076Z</time></trkpt><trkpt lat="44.1594284" lon="12.1332542"><ele>63.142857142857146</ele><time>2026-05-01T09:14:29.103Z</time></trkpt><trkpt lat="44.1593594" lon="12.1332316"><ele>64.57142857142857</ele><time>2026-05-01T09:14:37.129Z</time></trkpt><trkpt lat="44.1592894" lon="12.1332168"><ele>66.0</ele><time>2026-05-01T09:14:44.068Z</time></trkpt><trkpt lat="44.1592254" lon="12.1331868"><ele>66.85714285714286</ele><time>2026-05-01T09:14:51.066Z</time></trkpt><trkpt lat="44.1591577" lon="12.1331502"><ele>67.71428571428572</ele><time>2026-05-01T09:14:58.163Z</time></trkpt><trkpt lat="44.159088" lon="12.1331461"><ele>68.57142857142858</ele><time>2026-05-01T09:15:06.089Z</time></trkpt><trkpt lat="44.1590257" lon="12.1331164"><ele>69.42857142857143</ele><time>2026-05-01T09:15:17.062Z</time></trkpt><trkpt lat="44.1589753" lon="12.1330614"><ele>70.28571428571429</ele><time>2026-05-01T09:15:22.144Z</time></trkpt><trkpt lat="44.158921" lon="12.1330112"><ele>71.14285714285715</ele><time>2026-05-01T09:15:31.086Z</time></trkpt><trkpt lat="44.1588619" lon="12.1329639"><ele>72.0</ele><time>2026-05-01T09:15:38.097Z</time></trkpt><trkpt lat="44.158798" lon="12.1329164"><ele>72.71428571428572</ele><time>2026-05-01T09:15:45.107Z</time></trkpt><trkpt lat="44.1587439" lon="12.1328658"><ele>73.42857142857143</ele><time>2026-05-01T09:15:53.134Z</time></trkpt><trkpt lat="44.1586885" lon="12.1328152"><ele>74.14285714285714</ele><time>2026-05-01T09:16:05.028Z</time></trkpt><trkpt lat="44.1586348" lon="12.1327605"><ele>74.85714285714286</ele><time>2026-05-01T09:16:13.152Z</time></trkpt><trkpt lat="44.1585788" lon="12.1327122"><ele>75.57142857142857</ele><time>2026-05-01T09:16:22.093Z</time></trkpt><trkpt lat="44.1585205" lon="12.1326614"><ele>76.28571428571429</ele><time>2026-05-01T09:16:29.105Z</time></trkpt><trkpt lat="44.1584662" lon="12.1325991"><ele>77.0</ele><time>2026-05-01T09:16:35.107Z</time></trkpt><trkpt lat="44.1584174" lon="12.1325393"><ele>77.0</ele><time>2026-05-01T09:16:41.063Z</time></trkpt><trkpt lat="44.158373" lon="12.1324583"><ele>77.0</ele><time>2026-05-01T09:16:48.106Z</time></trkpt><trkpt lat="44.1583086" lon="12.1323971"><ele>77.0</ele><time>2026-05-01T09:16:54.101Z</time></trkpt><trkpt lat="44.1582509" lon="12.1323415"><ele>77.0</ele><time>2026-05-01T09:17:01.112Z</time></trkpt><trkpt lat="44.1581959" lon="12.1322934"><ele>77.0</ele><time>2026-05-01T09:17:08.124Z</time></trkpt><trkpt lat="44.1581384" lon="12.1322551"><ele>77.0</ele><time>2026-05-01T09:17:16.151Z</time></trkpt><trkpt lat="44.1580783" lon="12.1322285"><ele>77.0</ele><time>2026-05-01T09:17:25.087Z</time></trkpt><trkpt lat="44.1580266" lon="12.1321653"><ele>78.42857142857143</ele><time>2026-05-01T09:17:33.12Z</time></trkpt><trkpt lat="44.1579642" lon="12.1321249"><ele>79.85714285714286</ele><time>2026-05-01T09:17:41.147Z</time></trkpt><trkpt lat="44.1579105" lon="12.1320742"><ele>81.28571428571428</ele><time>2026-05-01T09:17:47.142Z</time></trkpt><trkpt lat="44.1578437" lon="12.1320423"><ele>82.71428571428572</ele><time>2026-05-01T09:17:52.12Z</time></trkpt><trkpt lat="44.157779" lon="12.1320034"><ele>84.14285714285714</ele><time>2026-05-01T09:18:05.127Z</time></trkpt><trkpt lat="44.15772" lon="12.1319463"><ele>85.57142857142857</ele><time>2026-05-01T09:18:14.069Z</time></trkpt><trkpt lat="44.1576625" lon="12.1319021"><ele>87.0</ele><time>2026-05-01T09:18:19.149Z</time></trkpt><trkpt lat="44.1576003" lon="12.1318372"><ele>87.0</ele><time>2026-05-01T09:18:25.148Z</time></trkpt><trkpt lat="44.1575481" lon="12.1317722"><ele>87.0</ele><time>2026-05-01T09:18:31.844Z</time></trkpt><trkpt lat="44.157499" lon="12.1316964"><ele>87.0</ele><time>2026-05-01T09:18:38.151Z</time></trkpt><trkpt lat="44.1574518" lon="12.1316261"><ele>87.0</ele><time>2026-05-01T09:18:46.077Z</time></trkpt><trkpt lat="44.1573964" lon="12.1315808"><ele>87.0</ele><time>2026-05-01T09:18:51.157Z</time></trkpt><trkpt lat="44.1573406" lon="12.1315246"><ele>87.0</ele><time>2026-05-01T09:18:57.151Z</time></trkpt><trkpt lat="44.1572788" lon="12.1314748"><ele>87.0</ele><time>2026-05-01T09:19:04.167Z</time></trkpt><trkpt lat="44.1572207" lon="12.1314374"><ele>88.85714285714286</ele><time>2026-05-01T09:19:10.158Z</time></trkpt><trkpt lat="44.1571546" lon="12.1313979"><ele>90.71428571428572</ele><time>2026-05-01T09:19:18.084Z</time></trkpt><trkpt lat="44.1570895" lon="12.1313753"><ele>92.57142857142858</ele><time>2026-05-01T09:19:24.079Z</time></trkpt><trkpt lat="44.1570299" lon="12.1313457"><ele>94.42857142857143</ele><time>2026-05-01T09:19:31.025Z</time></trkpt><trkpt lat="44.1569777" lon="12.13129"><ele>96.28571428571429</ele><time>2026-05-01T09:19:37.084Z</time></trkpt><trkpt lat="44.1569165" lon="12.1312471"><ele>98.14285714285715</ele><time>2026-05-01T09:19:43.08Z</time></trkpt><trkpt lat="44.156844" lon="12.1312283"><ele>100.0</ele><time>2026-05-01T09:19:50.091Z</time></trkpt><trkpt lat="44.1567883" lon="12.1311682"><ele>100.00000000000001</ele><time>2026-05-01T09:19:57.163Z</time></trkpt><trkpt lat="44.1567241" lon="12.1311474"><ele>100.0</ele><time>2026-05-01T09:20:05.13Z</time></trkpt><trkpt lat="44.1566514" lon="12.1311291"><ele>100.0</ele><time>2026-05-01T09:20:12.141Z</time></trkpt><trkpt lat="44.1565859" lon="12.1310893"><ele>100.0</ele><time>2026-05-01T09:20:18.136Z</time></trkpt><trkpt lat="44.1565284" lon="12.1310349"><ele>100.0</ele><time>2026-05-01T09:20:24.13Z</time></trkpt><trkpt lat="44.1564658" lon="12.1309921"><ele>100.00000000000001</ele><time>2026-05-01T09:20:30.126Z</time></trkpt><trkpt lat="44.1564105" lon="12.130948"><ele>100.0</ele><time>2026-05-01T09:20:37.137Z</time></trkpt><trkpt lat="44.1563553" lon="12.1308944"><ele>100.28571428571429</ele><time>2026-05-01T09:20:59.104Z</time></trkpt><trkpt lat="44.1562812" lon="12.1308798"><ele>100.57142857142857</ele><time>2026-05-01T09:21:05.079Z</time></trkpt><trkpt lat="44.1562135" lon="12.1308686"><ele>100.85714285714286</ele><time>2026-05-01T09:21:13.107Z</time></trkpt><trkpt lat="44.1561573" lon="12.1308234"><ele>101.14285714285714</ele><time>2026-05-01T09:21:20.117Z</time></trkpt><trkpt lat="44.1561004" lon="12.1307833"><ele>101.42857142857143</ele><time>2026-05-01T09:21:27.129Z</time></trkpt><trkpt lat="44.156038" lon="12.1307378"><ele>101.71428571428572</ele><time>2026-05-01T09:21:34.14Z</time></trkpt><trkpt lat="44.1559768" lon="12.1307144"><ele>102.0</ele><time>2026-05-01T09:21:40.136Z</time></trkpt><trkpt lat="44.1559112" lon="12.130701"><ele>103.28571428571429</ele><time>2026-05-01T09:21:46.131Z</time></trkpt><trkpt lat="44.155849" lon="12.1306834"><ele>104.57142857142858</ele><time>2026-05-01T09:21:52.126Z</time></trkpt><trkpt lat="44.1557886" lon="12.1306341"><ele>105.85714285714286</ele><time>2026-05-01T09:21:58.12Z</time></trkpt><trkpt lat="44.1557271" lon="12.1305989"><ele>107.14285714285714</ele><time>2026-05-01T09:22:06.148Z</time></trkpt><trkpt lat="44.1556657" lon="12.1305781"><ele>108.42857142857143</ele><time>2026-05-01T09:22:13.159Z</time></trkpt><trkpt lat="44.1555959" lon="12.1305514"><ele>109.71428571428571</ele><time>2026-05-01T09:22:20.069Z</time></trkpt><trkpt lat="44.1555256" lon="12.1305324"><ele>111.0</ele><time>2026-05-01T09:22:28.097Z</time></trkpt><trkpt lat="44.1554602" lon="12.1305035"><ele>111.71428571428571</ele><time>2026-05-01T09:22:35.108Z</time></trkpt><trkpt lat="44.1553983" lon="12.1304677"><ele>112.42857142857144</ele><time>2026-05-01T09:22:43.134Z</time></trkpt><trkpt lat="44.1553346" lon="12.1304485"><ele>113.14285714285715</ele><time>2026-05-01T09:22:51.063Z</time></trkpt><trkpt lat="44.1552671" lon="12.1304464"><ele>113.85714285714286</ele><time>2026-05-01T09:22:58.071Z</time></trkpt><trkpt lat="44.1552004" lon="12.1304167"><ele>114.57142857142858</ele><time>2026-05-01T09:23:05.065Z</time></trkpt><trkpt lat="44.155143" lon="12.1303679"><ele>115.2857142857143</ele><time>2026-05-01T09:23:12.093Z</time></trkpt><trkpt lat="44.1550898" lon="12.13032"><ele>116.00000000000001</ele><time>2026-05-01T09:23:19.106Z</time></trkpt><trkpt lat="44.1549752" lon="12.1302666"><ele>116.00000000000001</ele><time>2026-05-01T09:23:58.125Z</time></trkpt><trkpt lat="44.1549162" lon="12.1302312"><ele>116.0</ele><time>2026-05-01T09:24:03.047Z</time></trkpt><trkpt lat="44.1548499" lon="12.1302287"><ele>116.00000000000001</ele><time>2026-05-01T09:24:09.106Z</time></trkpt><trkpt lat="44.1547885" lon="12.1301953"><ele>116.00000000000001</ele><time>2026-05-01T09:24:17.125Z</time></trkpt><trkpt lat="44.1547268" lon="12.1301609"><ele>116.0</ele><time>2026-05-01T09:24:23.121Z</time></trkpt><trkpt lat="44.1546591" lon="12.1301424"><ele>116.00000000000001</ele><time>2026-05-01T09:24:32.063Z</time></trkpt><trkpt lat="44.1546041" lon="12.13009"><ele>116.00000000000001</ele><time>2026-05-01T09:24:38.062Z</time></trkpt><trkpt lat="44.1545441" lon="12.1300584"><ele>116.57142857142858</ele><time>2026-05-01T09:24:45.069Z</time></trkpt><trkpt lat="44.1544825" lon="12.13004"><ele>117.14285714285714</ele><time>2026-05-01T09:24:52.986Z</time></trkpt><trkpt lat="44.1544254" lon="12.1299968"><ele>117.71428571428572</ele><time>2026-05-01T09:24:59.091Z</time></trkpt><trkpt lat="44.1543738" lon="12.1299351"><ele>118.28571428571429</ele><time>2026-05-01T09:25:07.12Z</time></trkpt><trkpt lat="44.1543077" lon="12.1299533"><ele>118.85714285714286</ele><time>2026-05-01T09:25:17.077Z</time></trkpt><trkpt lat="44.1542491" lon="12.1299872"><ele>119.42857142857143</ele><time>2026-05-01T09:25:24.089Z</time></trkpt><trkpt lat="44.1541917" lon="12.1300247"><ele>120.0</ele><time>2026-05-01T09:25:33.031Z</time></trkpt><trkpt lat="44.1541302" lon="12.1300592"><ele>120.0</ele><time>2026-05-01T09:25:41.16Z</time></trkpt><trkpt lat="44.1540672" lon="12.1301073"><ele>120.0</ele><time>2026-05-01T09:25:48.069Z</time></trkpt><trkpt lat="44.1540011" lon="12.1301456"><ele>120.0</ele><time>2026-05-01T09:25:55.081Z</time></trkpt><trkpt lat="44.1539375" lon="12.1301631"><ele>120.0</ele><time>2026-05-01T09:26:02.093Z</time></trkpt><trkpt lat="44.1538782" lon="12.1301956"><ele>120.0</ele><time>2026-05-01T09:26:08.088Z</time></trkpt><trkpt lat="44.1538291" lon="12.1302609"><ele>120.0</ele><time>2026-05-01T09:26:15.099Z</time></trkpt><trkpt lat="44.1537712" lon="12.1303195"><ele>120.0</ele><time>2026-05-01T09:26:22.111Z</time></trkpt><trkpt lat="44.1537243" lon="12.1303791"><ele>121.28571428571429</ele><time>2026-05-01T09:26:29.123Z</time></trkpt><trkpt lat="44.1536606" lon="12.1304137"><ele>122.57142857142856</ele><time>2026-05-01T09:26:36.086Z</time></trkpt><trkpt lat="44.1536016" lon="12.1304685"><ele>123.85714285714285</ele><time>2026-05-01T09:26:44.162Z</time></trkpt><trkpt lat="44.1535413" lon="12.1305206"><ele>125.14285714285714</ele><time>2026-05-01T09:26:51.145Z</time></trkpt><trkpt lat="44.1534788" lon="12.1305728"><ele>126.42857142857142</ele><time>2026-05-01T09:26:58.083Z</time></trkpt><trkpt lat="44.1534173" lon="12.1306252"><ele>127.7142857142857</ele><time>2026-05-01T09:27:06.109Z</time></trkpt><trkpt lat="44.153352" lon="12.1306723"><ele>129.0</ele><time>2026-05-01T09:27:14.138Z</time></trkpt><trkpt lat="44.1532966" lon="12.1307276"><ele>129.66666666666666</ele><time>2026-05-01T09:27:21.147Z</time></trkpt><trkpt lat="44.1532441" lon="12.1307807"><ele>130.33333333333334</ele><time>2026-05-01T09:27:29.074Z</time></trkpt><trkpt lat="44.1531951" lon="12.1308421"><ele>131.0</ele><time>2026-05-01T09:27:36.087Z</time></trkpt><trkpt lat="44.1531497" lon="12.1310185"><ele>131.66666666666669</ele><time>2026-05-01T09:28:59.107Z</time></trkpt><trkpt lat="44.1531026" lon="12.1310859"><ele>132.33333333333334</ele><time>2026-05-01T09:29:05.103Z</time></trkpt><trkpt lat="44.1530526" lon="12.1311466"><ele>133.0</ele><time>2026-05-01T09:29:12.114Z</time></trkpt><trkpt lat="44.1530043" lon="12.1312136"><ele>135.14285714285714</ele><time>2026-05-01T09:29:20.028Z</time></trkpt><trkpt lat="44.1529657" lon="12.1312999"><ele>137.28571428571428</ele><time>2026-05-01T09:29:56.114Z</time></trkpt><trkpt lat="44.1529" lon="12.1313533"><ele>139.42857142857144</ele><time>2026-05-01T09:30:02.109Z</time></trkpt><trkpt lat="44.1528475" lon="12.1314118"><ele>141.57142857142856</ele><time>2026-05-01T09:30:10.137Z</time></trkpt><trkpt lat="44.1527997" lon="12.1314855"><ele>143.71428571428572</ele><time>2026-05-01T09:30:18.062Z</time></trkpt><trkpt lat="44.1527541" lon="12.1315514"><ele>145.85714285714286</ele><time>2026-05-01T09:30:24.159Z</time></trkpt><trkpt lat="44.1527186" lon="12.1316286"><ele>148.0</ele><time>2026-05-01T09:30:31.068Z</time></trkpt><trkpt lat="44.1526852" lon="12.1317095"><ele>148.57142857142858</ele><time>2026-05-01T09:30:38.081Z</time></trkpt><trkpt lat="44.1526387" lon="12.1317787"><ele>149.14285714285714</ele><time>2026-05-01T09:30:45.092Z</time></trkpt><trkpt lat="44.152591" lon="12.131837"><ele>149.71428571428572</ele><time>2026-05-01T09:30:53.119Z</time></trkpt><trkpt lat="44.1525458" lon="12.1319033"><ele>150.28571428571428</ele><time>2026-05-01T09:31:00.13Z</time></trkpt><trkpt lat="44.1524893" lon="12.1319599"><ele>150.85714285714286</ele><time>2026-05-01T09:31:07.143Z</time></trkpt><trkpt lat="44.152436" lon="12.1320127"><ele>151.42857142857142</ele><time>2026-05-01T09:31:13.137Z</time></trkpt><trkpt lat="44.1523725" lon="12.1320523"><ele>152.0</ele><time>2026-05-01T09:31:19.087Z</time></trkpt><trkpt lat="44.1523108" lon="12.1321076"><ele>154.42857142857142</ele><time>2026-05-01T09:31:25.128Z</time></trkpt><trkpt lat="44.1522342" lon="12.132147"><ele>156.85714285714286</ele><time>2026-05-01T09:31:33.063Z</time></trkpt><trkpt lat="44.1521698" lon="12.1321562"><ele>159.28571428571428</ele><time>2026-05-01T09:31:40.066Z</time></trkpt><trkpt lat="44.1521068" lon="12.1321932"><ele>161.71428571428572</ele><time>2026-05-01T09:31:49.11Z</time></trkpt><trkpt lat="44.152041" lon="12.1322214"><ele>164.14285714285714</ele><time>2026-05-01T09:31:56.121Z</time></trkpt><trkpt lat="44.1519672" lon="12.1322783"><ele>166.57142857142858</ele><time>2026-05-01T09:32:04.754Z</time></trkpt><trkpt lat="44.1519757" lon="12.1323654"><ele>169.0</ele><time>2026-05-01T09:32:14.134Z</time></trkpt><trkpt lat="44.1519428" lon="12.1324559"><ele>169.0</ele><time>2026-05-01T09:32:20.128Z</time></trkpt><trkpt lat="44.1519052" lon="12.1325475"><ele>169.0</ele><time>2026-05-01T09:32:25.108Z</time></trkpt><trkpt lat="44.1518709" lon="12.1326278"><ele>169.0</ele><time>2026-05-01T09:32:29.072Z</time></trkpt><trkpt lat="44.1518154" lon="12.1326952"><ele>169.0</ele><time>2026-05-01T09:32:34.152Z</time></trkpt><trkpt lat="44.1517535" lon="12.1327381"><ele>169.0</ele><time>2026-05-01T09:32:39.087Z</time></trkpt><trkpt lat="44.1516935" lon="12.1327966"><ele>169.0</ele><time>2026-05-01T09:32:49.09Z</time></trkpt><trkpt lat="44.1516383" lon="12.1328463"><ele>169.0</ele><time>2026-05-01T09:32:55.086Z</time></trkpt><trkpt lat="44.1515957" lon="12.1329213"><ele>169.0</ele><time>2026-05-01T09:33:01.081Z</time></trkpt><trkpt lat="44.1515344" lon="12.1329421"><ele>169.0</ele><time>2026-05-01T09:33:12.061Z</time></trkpt><trkpt lat="44.1515517" lon="12.1328543"><ele>169.0</ele><time>2026-05-01T09:33:29.05Z</time></trkpt><trkpt lat="44.1515824" lon="12.1327763"><ele>169.0</ele><time>2026-05-01T09:33:37.155Z</time></trkpt><trkpt lat="44.1516096" lon="12.1326961"><ele>169.0</ele><time>2026-05-01T09:33:43.149Z</time></trkpt><trkpt lat="44.1516295" lon="12.1326109"><ele>169.0</ele><time>2026-05-01T09:33:51.076Z</time></trkpt><trkpt lat="44.1516518" lon="12.1325148"><ele>169.0</ele><time>2026-05-01T09:34:01.11Z</time></trkpt><trkpt lat="44.1516688" lon="12.1324129"><ele>170.28571428571428</ele><time>2026-05-01T09:34:07.132Z</time></trkpt><trkpt lat="44.1516925" lon="12.1323297"><ele>171.57142857142856</ele><time>2026-05-01T09:34:10.992Z</time></trkpt><trkpt lat="44.1517203" lon="12.1322263"><ele>172.85714285714283</ele><time>2026-05-01T09:34:17.09Z</time></trkpt><trkpt lat="44.1517387" lon="12.1321418"><ele>174.14285714285714</ele><time>2026-05-01T09:34:22.068Z</time></trkpt><trkpt lat="44.1517557" lon="12.1320526"><ele>175.42857142857142</ele><time>2026-05-01T09:34:28.064Z</time></trkpt><trkpt lat="44.1517324" lon="12.1319655"><ele>176.7142857142857</ele><time>2026-05-01T09:34:34.062Z</time></trkpt><trkpt lat="44.1517371" lon="12.1318657"><ele>178.0</ele><time>2026-05-01T09:34:44.12Z</time></trkpt><trkpt lat="44.1517592" lon="12.1317788"><ele>178.0</ele><time>2026-05-01T09:34:56.087Z</time></trkpt><trkpt lat="44.1518025" lon="12.1317059"><ele>178.0</ele><time>2026-05-01T09:35:09.118Z</time></trkpt><trkpt lat="44.1518275" lon="12.1316181"><ele>178.0</ele><time>2026-05-01T09:35:13.08Z</time></trkpt><trkpt lat="44.1517536" lon="12.1314556"><ele>178.0</ele><time>2026-05-01T09:35:22.123Z</time></trkpt><trkpt lat="44.1517261" lon="12.1313626"><ele>178.0</ele><time>2026-05-01T09:35:27.002Z</time></trkpt><trkpt lat="44.1516955" lon="12.1312683"><ele>178.0</ele><time>2026-05-01T09:35:34.114Z</time></trkpt><trkpt lat="44.1516603" lon="12.1311923"><ele>177.28571428571428</ele><time>2026-05-01T09:35:42.069Z</time></trkpt><trkpt lat="44.151603" lon="12.1311332"><ele>176.57142857142856</ele><time>2026-05-01T09:35:51.085Z</time></trkpt><trkpt lat="44.1515396" lon="12.131131"><ele>175.85714285714283</ele><time>2026-05-01T09:35:59.112Z</time></trkpt><trkpt lat="44.1515133" lon="12.1312219"><ele>175.14285714285714</ele><time>2026-05-01T09:36:11.103Z</time></trkpt><trkpt lat="44.1515224" lon="12.1313156"><ele>174.42857142857144</ele><time>2026-05-01T09:36:19.13Z</time></trkpt><trkpt lat="44.1515402" lon="12.1314041"><ele>173.7142857142857</ele><time>2026-05-01T09:36:30.105Z</time></trkpt><trkpt lat="44.1514679" lon="12.1314056"><ele>173.0</ele><time>2026-05-01T09:36:38.131Z</time></trkpt><trkpt lat="44.1514079" lon="12.1314346"><ele>175.7142857142857</ele><time>2026-05-01T09:36:43.11Z</time></trkpt><trkpt lat="44.1513539" lon="12.1314805"><ele>178.42857142857144</ele><time>2026-05-01T09:36:49.028Z</time></trkpt><trkpt lat="44.1512975" lon="12.1315197"><ele>181.14285714285714</ele><time>2026-05-01T09:36:57.133Z</time></trkpt><trkpt lat="44.1512251" lon="12.1315443"><ele>183.85714285714283</ele><time>2026-05-01T09:37:03.129Z</time></trkpt><trkpt lat="44.1511665" lon="12.1315887"><ele>186.57142857142856</ele><time>2026-05-01T09:37:12.071Z</time></trkpt><trkpt lat="44.1511078" lon="12.1316214"><ele>189.28571428571428</ele><time>2026-05-01T09:37:24.062Z</time></trkpt><trkpt lat="44.1510385" lon="12.1316028"><ele>192.0</ele><time>2026-05-01T09:37:38.085Z</time></trkpt><trkpt lat="44.1509755" lon="12.1316167"><ele>193.28571428571428</ele><time>2026-05-01T09:37:44.079Z</time></trkpt><trkpt lat="44.1509051" lon="12.1315952"><ele>194.57142857142856</ele><time>2026-05-01T09:37:55.049Z</time></trkpt><trkpt lat="44.1508422" lon="12.1315794"><ele>195.85714285714283</ele><time>2026-05-01T09:38:00.134Z</time></trkpt><trkpt lat="44.1507734" lon="12.1316049"><ele>197.14285714285714</ele><time>2026-05-01T09:38:05.113Z</time></trkpt><trkpt lat="44.150726" lon="12.1316803"><ele>198.42857142857144</ele><time>2026-05-01T09:38:14.062Z</time></trkpt><trkpt lat="44.1506674" lon="12.1317255"><ele>199.7142857142857</ele><time>2026-05-01T09:38:21.068Z</time></trkpt><trkpt lat="44.1506104" lon="12.1317675"><ele>201.0</ele><time>2026-05-01T09:38:31.127Z</time></trkpt><trkpt lat="44.1505593" lon="12.1318278"><ele>204.42857142857142</ele><time>2026-05-01T09:38:39.155Z</time></trkpt><trkpt lat="44.1504966" lon="12.1318608"><ele>207.8571428571429</ele><time>2026-05-01T09:38:52.05Z</time></trkpt><trkpt lat="44.1504463" lon="12.1319188"><ele>211.2857142857143</ele><time>2026-05-01T09:39:06.082Z</time></trkpt><trkpt lat="44.1503853" lon="12.1319533"><ele>214.71428571428572</ele><time>2026-05-01T09:39:13.094Z</time></trkpt><trkpt lat="44.1503345" lon="12.1320083"><ele>218.14285714285717</ele><time>2026-05-01T09:39:24.069Z</time></trkpt><trkpt lat="44.1503002" lon="12.1320975"><ele>221.5714285714286</ele><time>2026-05-01T09:39:27.117Z</time></trkpt><trkpt lat="44.1502762" lon="12.1321914"><ele>225.00000000000003</ele><time>2026-05-01T09:39:34.129Z</time></trkpt><trkpt lat="44.1502326" lon="12.1322581"><ele>225.00000000000003</ele><time>2026-05-01T09:39:42.155Z</time></trkpt><trkpt lat="44.1501939" lon="12.132336"><ele>225.0</ele><time>2026-05-01T09:39:49.066Z</time></trkpt><trkpt lat="44.1501641" lon="12.1324256"><ele>225.00000000000003</ele><time>2026-05-01T09:42:41.049Z</time></trkpt><trkpt lat="44.1501011" lon="12.1324534"><ele>225.00000000000003</ele><time>2026-05-01T09:42:47.097Z</time></trkpt><trkpt lat="44.1500663" lon="12.1325325"><ele>225.0</ele><time>2026-05-01T09:42:53.091Z</time></trkpt><trkpt lat="44.150018" lon="12.1326026"><ele>225.00000000000003</ele><time>2026-05-01T09:43:00.104Z</time></trkpt><trkpt lat="44.1499501" lon="12.1325964"><ele>225.00000000000003</ele><time>2026-05-01T09:43:06.099Z</time></trkpt><trkpt lat="44.1498817" lon="12.1326231"><ele>228.42857142857144</ele><time>2026-05-01T09:43:11.078Z</time></trkpt><trkpt lat="44.1498502" lon="12.1327397"><ele>231.85714285714286</ele><time>2026-05-01T09:43:28.148Z</time></trkpt><trkpt lat="44.1497952" lon="12.1327992"><ele>235.28571428571428</ele><time>2026-05-01T09:43:34.144Z</time></trkpt><trkpt lat="44.1497312" lon="12.1328464"><ele>238.71428571428572</ele><time>2026-05-01T09:43:40.151Z</time></trkpt><trkpt lat="44.1496769" lon="12.1328974"><ele>242.1428571428571</ele><time>2026-05-01T09:43:45.119Z</time></trkpt><trkpt lat="44.1496247" lon="12.1329718"><ele>245.57142857142856</ele><time>2026-05-01T09:43:50.098Z</time></trkpt><trkpt lat="44.1495791" lon="12.1330451"><ele>249.0</ele><time>2026-05-01T09:43:55.077Z</time></trkpt><trkpt lat="44.1495254" lon="12.1330975"><ele>249.0</ele><time>2026-05-01T09:43:59.142Z</time></trkpt><trkpt lat="44.149474" lon="12.1331561"><ele>248.99999999999997</ele><time>2026-05-01T09:44:10.117Z</time></trkpt><trkpt lat="44.1494246" lon="12.1332134"><ele>249.0</ele><time>2026-05-01T09:44:13.09Z</time></trkpt><trkpt lat="44.1493864" lon="12.1332917"><ele>249.0</ele><time>2026-05-01T09:44:19.16Z</time></trkpt><trkpt lat="44.1493715" lon="12.133394"><ele>248.99999999999997</ele><time>2026-05-01T09:44:24.14Z</time></trkpt><trkpt lat="44.1493562" lon="12.1334876"><ele>249.0</ele><time>2026-05-01T09:44:32.066Z</time></trkpt><trkpt lat="44.1493385" lon="12.1335799"><ele>249.0</ele><time>2026-05-01T09:44:40.093Z</time></trkpt><trkpt lat="44.1493479" lon="12.1336694"><ele>248.0</ele><time>2026-05-01T09:44:56.148Z</time></trkpt><trkpt lat="44.14927" lon="12.1337208"><ele>247.0</ele><time>2026-05-01T09:47:38.132Z</time></trkpt><trkpt lat="44.1491998" lon="12.1337158"><ele>246.0</ele><time>2026-05-01T09:47:58.048Z</time></trkpt><trkpt lat="44.1491391" lon="12.1336749"><ele>245.0</ele><time>2026-05-01T09:48:05.155Z</time></trkpt><trkpt lat="44.1490968" lon="12.1336048"><ele>244.0</ele><time>2026-05-01T09:48:09.118Z</time></trkpt><trkpt lat="44.1490036" lon="12.1336294"><ele>243.0</ele><time>2026-05-01T09:48:22.09Z</time></trkpt><trkpt lat="44.1489497" lon="12.1336814"><ele>246.14285714285714</ele><time>2026-05-01T09:48:23.14Z</time></trkpt><trkpt lat="44.148955" lon="12.1335612"><ele>249.28571428571428</ele><time>2026-05-01T09:48:33.111Z</time></trkpt><trkpt lat="44.1489546" lon="12.1334711"><ele>252.42857142857142</ele><time>2026-05-01T09:48:44.029Z</time></trkpt><trkpt lat="44.1488903" lon="12.1334727"><ele>255.57142857142856</ele><time>2026-05-01T09:48:56.165Z</time></trkpt><trkpt lat="44.1488272" lon="12.1335136"><ele>258.7142857142857</ele><time>2026-05-01T09:49:09.07Z</time></trkpt><trkpt lat="44.1488062" lon="12.1336062"><ele>261.85714285714283</ele><time>2026-05-01T09:49:18.115Z</time></trkpt><trkpt lat="44.14879" lon="12.1337015"><ele>265.0</ele><time>2026-05-01T09:49:25.127Z</time></trkpt><trkpt lat="44.1487672" lon="12.1337859"><ele>265.0</ele><time>2026-05-01T09:49:34.069Z</time></trkpt><trkpt lat="44.1487105" lon="12.1338469"><ele>265.0</ele><time>2026-05-01T09:49:42.096Z</time></trkpt><trkpt lat="44.1486563" lon="12.1339119"><ele>265.0</ele><time>2026-05-01T09:49:49.108Z</time></trkpt><trkpt lat="44.1485989" lon="12.133966"><ele>265.0</ele><time>2026-05-01T09:49:56.12Z</time></trkpt><trkpt lat="44.1485531" lon="12.1340274"><ele>265.0</ele><time>2026-05-01T09:50:06.078Z</time></trkpt><trkpt lat="44.1484877" lon="12.1340595"><ele>265.0</ele><time>2026-05-01T09:50:12.089Z</time></trkpt><trkpt lat="44.1483937" lon="12.1341236"><ele>263.2857142857143</ele><time>2026-05-01T09:50:40.13Z</time></trkpt><trkpt lat="44.148333" lon="12.1341791"><ele>261.57142857142856</ele><time>2026-05-01T09:50:58.105Z</time></trkpt><trkpt lat="44.1483131" lon="12.1342671"><ele>259.8571428571429</ele><time>2026-05-01T09:51:09.08Z</time></trkpt><trkpt lat="44.1482803" lon="12.1343428"><ele>258.1428571428571</ele><time>2026-05-01T09:51:19.14Z</time></trkpt><trkpt lat="44.1482179" lon="12.1343878"><ele>256.42857142857144</ele><time>2026-05-01T09:51:25.135Z</time></trkpt><trkpt lat="44.1481559" lon="12.1344104"><ele>254.71428571428575</ele><time>2026-05-01T09:51:30.115Z</time></trkpt><trkpt lat="44.1480968" lon="12.1343724"><ele>253.00000000000003</ele><time>2026-05-01T09:51:41.088Z</time></trkpt><trkpt lat="44.1480363" lon="12.1343454"><ele>253.00000000000003</ele><time>2026-05-01T09:51:51.149Z</time></trkpt><trkpt lat="44.1479729" lon="12.1343252"><ele>253.0</ele><time>2026-05-01T09:51:58.16Z</time></trkpt><trkpt lat="44.1479071" lon="12.1343163"><ele>253.00000000000003</ele><time>2026-05-01T09:52:06.009Z</time></trkpt><trkpt lat="44.1478428" lon="12.1343011"><ele>253.00000000000003</ele><time>2026-05-01T09:52:15.13Z</time></trkpt><trkpt lat="44.1477715" lon="12.1343078"><ele>253.0</ele><time>2026-05-01T09:52:25.088Z</time></trkpt><trkpt lat="44.1477068" lon="12.1343184"><ele>253.00000000000003</ele><time>2026-05-01T09:52:35.148Z</time></trkpt><trkpt lat="44.1477349" lon="12.1343982"><ele>253.00000000000003</ele><time>2026-05-01T09:53:06.14Z</time></trkpt><trkpt lat="44.1478031" lon="12.1344015"><ele>253.00000000000003</ele><time>2026-05-01T09:53:14.067Z</time></trkpt><trkpt lat="44.1477367" lon="12.1344078"><ele>253.0</ele><time>2026-05-01T09:53:48.107Z</time></trkpt><trkpt lat="44.1476518" lon="12.1344201"><ele>253.00000000000003</ele><time>2026-05-01T09:54:17.067Z</time></trkpt><trkpt lat="44.1475851" lon="12.1344277"><ele>253.00000000000003</ele><time>2026-05-01T09:54:30.992Z</time></trkpt><trkpt lat="44.1475125" lon="12.1344416"><ele>253.0</ele><time>2026-05-01T09:54:37.085Z</time></trkpt><trkpt lat="44.1474492" lon="12.1344455"><ele>253.00000000000003</ele><time>2026-05-01T09:54:46.051Z</time></trkpt><trkpt lat="44.1473812" lon="12.1344524"><ele>253.00000000000003</ele><time>2026-05-01T09:54:54.091Z</time></trkpt><trkpt lat="44.1473174" lon="12.1344551"><ele>251.5714285714286</ele><time>2026-05-01T09:55:02.081Z</time></trkpt><trkpt lat="44.1472495" lon="12.1344357"><ele>250.14285714285717</ele><time>2026-05-01T09:55:09.093Z</time></trkpt><trkpt lat="44.1471794" lon="12.1344243"><ele>248.71428571428572</ele><time>2026-05-01T09:55:19.154Z</time></trkpt><trkpt lat="44.1471141" lon="12.1344181"><ele>247.2857142857143</ele><time>2026-05-01T09:55:28.096Z</time></trkpt><trkpt lat="44.1470547" lon="12.1344705"><ele>245.8571428571429</ele><time>2026-05-01T09:55:37.139Z</time></trkpt><trkpt lat="44.1469874" lon="12.1345141"><ele>244.42857142857142</ele><time>2026-05-01T09:55:44.15Z</time></trkpt><trkpt lat="44.1469224" lon="12.134541"><ele>243.0</ele><time>2026-05-01T09:55:54.108Z</time></trkpt><trkpt lat="44.1468587" lon="12.1345803"><ele>243.0</ele><time>2026-05-01T09:56:00.103Z</time></trkpt><trkpt lat="44.1467945" lon="12.1345925"><ele>243.0</ele><time>2026-05-01T09:56:07.152Z</time></trkpt><trkpt lat="44.1467296" lon="12.1346308"><ele>243.0</ele><time>2026-05-01T09:56:14.126Z</time></trkpt><trkpt lat="44.1466664" lon="12.1346555"><ele>243.0</ele><time>2026-05-01T09:56:23.068Z</time></trkpt><trkpt lat="44.1465958" lon="12.1346682"><ele>243.0</ele><time>2026-05-01T09:56:32.112Z</time></trkpt><trkpt lat="44.1465319" lon="12.1346578"><ele>243.0</ele><time>2026-05-01T09:56:38.028Z</time></trkpt><trkpt lat="44.1464335" lon="12.1345968"><ele>243.0</ele><time>2026-05-01T09:56:57.108Z</time></trkpt><trkpt lat="44.1463108" lon="12.1345259"><ele>239.7142857142857</ele><time>2026-05-01T09:57:15.094Z</time></trkpt><trkpt lat="44.1462479" lon="12.1345156"><ele>236.42857142857144</ele><time>2026-05-01T09:57:20.073Z</time></trkpt><trkpt lat="44.1461714" lon="12.1345284"><ele>233.14285714285714</ele><time>2026-05-01T09:57:26.068Z</time></trkpt><trkpt lat="44.1460996" lon="12.1345679"><ele>229.85714285714283</ele><time>2026-05-01T09:57:32.063Z</time></trkpt><trkpt lat="44.1460403" lon="12.1346317"><ele>226.57142857142856</ele><time>2026-05-01T09:57:36.126Z</time></trkpt><trkpt lat="44.1459885" lon="12.1346819"><ele>223.28571428571428</ele><time>2026-05-01T09:57:42.122Z</time></trkpt><trkpt lat="44.1459434" lon="12.1347475"><ele>220.0</ele><time>2026-05-01T09:57:47.011Z</time></trkpt><trkpt lat="44.145879" lon="12.1347291"><ele>219.99999999999997</ele><time>2026-05-01T09:57:52.731Z</time></trkpt><trkpt lat="44.1458196" lon="12.1346959"><ele>220.0</ele><time>2026-05-01T09:57:58.076Z</time></trkpt><trkpt lat="44.1457632" lon="12.1346339"><ele>220.0</ele><time>2026-05-01T09:58:05.087Z</time></trkpt><trkpt lat="44.1457323" lon="12.1345501"><ele>220.0</ele><time>2026-05-01T09:58:12.098Z</time></trkpt><trkpt lat="44.1457169" lon="12.1344647"><ele>220.0</ele><time>2026-05-01T09:58:18.093Z</time></trkpt><trkpt lat="44.1457029" lon="12.1343748"><ele>219.99999999999997</ele><time>2026-05-01T09:58:32.116Z</time></trkpt><trkpt lat="44.145696" lon="12.13428"><ele>220.0</ele><time>2026-05-01T09:58:38.111Z</time></trkpt><trkpt lat="44.1456741" lon="12.134191"><ele>219.0</ele><time>2026-05-01T09:58:46.137Z</time></trkpt></trkseg><trkseg><trkpt lat="44.1477085" lon="12.1351597"><ele>219.0</ele><time>2026-05-01T11:08:50.084Z</time></trkpt><trkpt lat="44.1477655" lon="12.135115"><ele>219.0</ele><time>2026-05-01T11:08:56.07Z</time></trkpt><trkpt lat="44.1478532" lon="12.1351202"><ele>219.0</ele><time>2026-05-01T11:09:01.061Z</time></trkpt><trkpt lat="44.1479198" lon="12.1351359"><ele>219.0</ele><time>2026-05-01T11:09:04.106Z</time></trkpt><trkpt lat="44.1479878" lon="12.1350939"><ele>219.0</ele><time>2026-05-01T11:09:07.09Z</time></trkpt><trkpt lat="44.1480603" lon="12.1350624"><ele>219.0</ele><time>2026-05-01T11:09:10.102Z</time></trkpt><trkpt lat="44.1481336" lon="12.1350399"><ele>219.0</ele><time>2026-05-01T11:09:14.167Z</time></trkpt><trkpt lat="44.1482038" lon="12.1350169"><ele>218.66666666666666</ele><time>2026-05-01T11:09:20.153Z</time></trkpt><trkpt lat="44.1482661" lon="12.1349906"><ele>218.33333333333331</ele><time>2026-05-01T11:09:27.072Z</time></trkpt><trkpt lat="44.1483369" lon="12.1349641"><ele>218.0</ele><time>2026-05-01T11:09:37.132Z</time></trkpt><trkpt lat="44.1483978" lon="12.1349305"><ele>217.66666666666666</ele><time>2026-05-01T11:09:43.127Z</time></trkpt><trkpt lat="44.1484634" lon="12.1348846"><ele>217.33333333333331</ele><time>2026-05-01T11:09:52.069Z</time></trkpt><trkpt lat="44.1485756" lon="12.1348396"><ele>217.0</ele><time>2026-05-01T11:10:03.096Z</time></trkpt><trkpt lat="44.1486367" lon="12.1347982"><ele>218.57142857142856</ele><time>2026-05-01T11:10:07.107Z</time></trkpt><trkpt lat="44.1487025" lon="12.1347575"><ele>220.14285714285714</ele><time>2026-05-01T11:10:12.087Z</time></trkpt><trkpt lat="44.1487663" lon="12.1347217"><ele>221.71428571428572</ele><time>2026-05-01T11:10:17.065Z</time></trkpt><trkpt lat="44.1488169" lon="12.1346672"><ele>223.28571428571428</ele><time>2026-05-01T11:10:30.072Z</time></trkpt><trkpt lat="44.148872" lon="12.13461"><ele>224.85714285714283</ele><time>2026-05-01T11:10:38.099Z</time></trkpt><trkpt lat="44.1489376" lon="12.134583"><ele>226.42857142857142</ele><time>2026-05-01T11:10:47.03Z</time></trkpt><trkpt lat="44.1490047" lon="12.1345294"><ele>228.0</ele><time>2026-05-01T11:10:51.106Z</time></trkpt><trkpt lat="44.1490775" lon="12.1344999"><ele>228.0</ele><time>2026-05-01T11:10:55.068Z</time></trkpt><trkpt lat="44.14914" lon="12.1344327"><ele>227.99999999999997</ele><time>2026-05-01T11:10:59.133Z</time></trkpt><trkpt lat="44.1491688" lon="12.1343363"><ele>228.0</ele><time>2026-05-01T11:11:02.08Z</time></trkpt><trkpt lat="44.1491841" lon="12.1342412"><ele>228.0</ele><time>2026-05-01T11:11:06.071Z</time></trkpt><trkpt lat="44.1492013" lon="12.1341394"><ele>227.99999999999997</ele><time>2026-05-01T11:11:10.107Z</time></trkpt><trkpt lat="44.1491995" lon="12.1340438"><ele>228.0</ele><time>2026-05-01T11:11:14.07Z</time></trkpt><trkpt lat="44.1491944" lon="12.1339397"><ele>228.0</ele><time>2026-05-01T11:11:20.065Z</time></trkpt><trkpt lat="44.1492549" lon="12.1339662"><ele>228.0</ele><time>2026-05-01T11:12:22.15Z</time></trkpt><trkpt lat="44.1493311" lon="12.1339666"><ele>228.0</ele><time>2026-05-01T11:12:28.145Z</time></trkpt><trkpt lat="44.1493537" lon="12.1340526"><ele>228.0</ele><time>2026-05-01T11:12:31.091Z</time></trkpt><trkpt lat="44.1494562" lon="12.1342525"><ele>228.0</ele><time>2026-05-01T11:12:36.133Z</time></trkpt><trkpt lat="44.1495058" lon="12.1343499"><ele>228.0</ele><time>2026-05-01T11:12:37.087Z</time></trkpt><trkpt lat="44.1495386" lon="12.134426"><ele>228.0</ele><time>2026-05-01T11:12:41.151Z</time></trkpt><trkpt lat="44.1494898" lon="12.1343595"><ele>228.0</ele><time>2026-05-01T11:12:53.142Z</time></trkpt><trkpt lat="44.1493447" lon="12.134149"><ele>228.0</ele><time>2026-05-01T11:12:57.105Z</time></trkpt><trkpt lat="44.1492892" lon="12.1340673"><ele>228.0</ele><time>2026-05-01T11:12:59.137Z</time></trkpt><trkpt lat="44.1492385" lon="12.1339949"><ele>228.0</ele><time>2026-05-01T11:13:06.08Z</time></trkpt><trkpt lat="44.1492461" lon="12.1341521"><ele>228.0</ele><time>2026-05-01T11:14:23.068Z</time></trkpt><trkpt lat="44.1493171" lon="12.1341603"><ele>228.0</ele><time>2026-05-01T11:14:34.144Z</time></trkpt><trkpt lat="44.1492451" lon="12.1340806"><ele>228.0</ele><time>2026-05-01T11:14:35.062Z</time></trkpt><trkpt lat="44.1491606" lon="12.133936"><ele>228.0</ele><time>2026-05-01T11:16:07.118Z</time></trkpt><trkpt lat="44.1492235" lon="12.133914"><ele>228.0</ele><time>2026-05-01T11:16:56.094Z</time></trkpt><trkpt lat="44.1492588" lon="12.1338358"><ele>228.0</ele><time>2026-05-01T11:17:12.149Z</time></trkpt><trkpt lat="44.1492676" lon="12.1337486"><ele>228.0</ele><time>2026-05-01T11:23:59.105Z</time></trkpt><trkpt lat="44.1493207" lon="12.1338041"><ele>227.99999999999997</ele><time>2026-05-01T11:24:06.052Z</time></trkpt><trkpt lat="44.1492832" lon="12.1338764"><ele>228.0</ele><time>2026-05-01T11:26:00.126Z</time></trkpt><trkpt lat="44.1493362" lon="12.1339334"><ele>228.0</ele><time>2026-05-01T11:28:04.094Z</time></trkpt><trkpt lat="44.1493489" lon="12.1340206"><ele>227.99999999999997</ele><time>2026-05-01T11:28:11.105Z</time></trkpt><trkpt lat="44.1492918" lon="12.1340913"><ele>228.0</ele><time>2026-05-01T11:28:21.066Z</time></trkpt><trkpt lat="44.1492635" lon="12.1341802"><ele>228.0</ele><time>2026-05-01T11:28:30.013Z</time></trkpt><trkpt lat="44.1492732" lon="12.1342908"><ele>228.0</ele><time>2026-05-01T11:28:50.125Z</time></trkpt><trkpt lat="44.1492456" lon="12.1343842"><ele>227.99999999999997</ele><time>2026-05-01T11:28:58.152Z</time></trkpt><trkpt lat="44.1492312" lon="12.1344736"><ele>228.0</ele><time>2026-05-01T11:29:05.066Z</time></trkpt><trkpt lat="44.1491785" lon="12.1345292"><ele>228.0</ele><time>2026-05-01T11:29:12.074Z</time></trkpt><trkpt lat="44.1491234" lon="12.1345879"><ele>227.99999999999997</ele><time>2026-05-01T11:29:21.116Z</time></trkpt><trkpt lat="44.1491895" lon="12.1345623"><ele>228.0</ele><time>2026-05-01T11:29:43.065Z</time></trkpt><trkpt lat="44.1492406" lon="12.1345051"><ele>228.0</ele><time>2026-05-01T11:29:54.141Z</time></trkpt><trkpt lat="44.1492691" lon="12.1344233"><ele>228.0</ele><time>2026-05-01T11:30:02.067Z</time></trkpt><trkpt lat="44.149298" lon="12.1343352"><ele>227.99999999999997</ele><time>2026-05-01T11:30:13.143Z</time></trkpt><trkpt lat="44.1493248" lon="12.1342517"><ele>228.0</ele><time>2026-05-01T11:30:23.101Z</time></trkpt><trkpt lat="44.1493497" lon="12.1341702"><ele>228.0</ele><time>2026-05-01T11:30:32.143Z</time></trkpt><trkpt lat="44.1493768" lon="12.1340861"><ele>227.99999999999997</ele><time>2026-05-01T11:30:44.135Z</time></trkpt><trkpt lat="44.1494446" lon="12.1340444"><ele>228.0</ele><time>2026-05-01T11:31:04.07Z</time></trkpt><trkpt lat="44.1495088" lon="12.1340408"><ele>228.0</ele><time>2026-05-01T11:31:12.078Z</time></trkpt><trkpt lat="44.1494865" lon="12.1341302"><ele>228.0</ele><time>2026-05-01T11:31:21.171Z</time></trkpt><trkpt lat="44.1494582" lon="12.1342126"><ele>227.99999999999997</ele><time>2026-05-01T11:31:29.092Z</time></trkpt><trkpt lat="44.1494323" lon="12.1343042"><ele>228.0</ele><time>2026-05-01T11:31:37.075Z</time></trkpt><trkpt lat="44.1494129" lon="12.1343995"><ele>228.0</ele><time>2026-05-01T11:31:45.102Z</time></trkpt><trkpt lat="44.1493821" lon="12.1344762"><ele>227.99999999999997</ele><time>2026-05-01T11:31:52.113Z</time></trkpt><trkpt lat="44.1493598" lon="12.1345599"><ele>228.0</ele><time>2026-05-01T11:32:03.111Z</time></trkpt><trkpt lat="44.1493332" lon="12.1346417"><ele>228.0</ele><time>2026-05-01T11:32:10.098Z</time></trkpt><trkpt lat="44.1493009" lon="12.1347339"><ele>228.0</ele><time>2026-05-01T11:32:26.152Z</time></trkpt><trkpt lat="44.1493396" lon="12.1348239"><ele>227.99999999999997</ele><time>2026-05-01T11:32:37.127Z</time></trkpt><trkpt lat="44.1494014" lon="12.1348919"><ele>228.0</ele><time>2026-05-01T11:32:41.09Z</time></trkpt><trkpt lat="44.1494493" lon="12.1349607"><ele>228.0</ele><time>2026-05-01T11:32:45.17Z</time></trkpt><trkpt lat="44.1494857" lon="12.1350385"><ele>227.99999999999997</ele><time>2026-05-01T11:32:51.149Z</time></trkpt><trkpt lat="44.1495102" lon="12.1351306"><ele>228.0</ele><time>2026-05-01T11:33:00.091Z</time></trkpt><trkpt lat="44.1495343" lon="12.1352128"><ele>228.0</ele><time>2026-05-01T11:33:07.101Z</time></trkpt><trkpt lat="44.1495634" lon="12.1353022"><ele>224.57142857142856</ele><time>2026-05-01T11:33:15.13Z</time></trkpt><trkpt lat="44.1495942" lon="12.1353817"><ele>221.1428571428571</ele><time>2026-05-01T11:33:23.049Z</time></trkpt><trkpt lat="44.1496261" lon="12.135461"><ele>217.71428571428572</ele><time>2026-05-01T11:33:32.098Z</time></trkpt><trkpt lat="44.1496468" lon="12.1355529"><ele>214.28571428571428</ele><time>2026-05-01T11:33:39.11Z</time></trkpt><trkpt lat="44.149676" lon="12.135638"><ele>210.85714285714286</ele><time>2026-05-01T11:33:45.105Z</time></trkpt><trkpt lat="44.1497137" lon="12.1357169"><ele>207.42857142857144</ele><time>2026-05-01T11:33:51.1Z</time></trkpt><trkpt lat="44.1497598" lon="12.1357865"><ele>204.0</ele><time>2026-05-01T11:33:58.111Z</time></trkpt><trkpt lat="44.1497706" lon="12.1358862"><ele>201.85714285714286</ele><time>2026-05-01T11:34:44.141Z</time></trkpt><trkpt lat="44.1498112" lon="12.1359615"><ele>199.71428571428572</ele><time>2026-05-01T11:34:49.119Z</time></trkpt><trkpt lat="44.1498597" lon="12.1360245"><ele>197.57142857142856</ele><time>2026-05-01T11:34:55.114Z</time></trkpt><trkpt lat="44.1499063" lon="12.1360894"><ele>195.42857142857144</ele><time>2026-05-01T11:35:01.109Z</time></trkpt><trkpt lat="44.1499554" lon="12.1361583"><ele>193.28571428571428</ele><time>2026-05-01T11:35:09.137Z</time></trkpt><trkpt lat="44.1500029" lon="12.1362168"><ele>191.14285714285714</ele><time>2026-05-01T11:35:18.078Z</time></trkpt><trkpt lat="44.1500507" lon="12.1362756"><ele>189.0</ele><time>2026-05-01T11:35:27.122Z</time></trkpt><trkpt lat="44.1501035" lon="12.1363297"><ele>188.28571428571428</ele><time>2026-05-01T11:35:35.15Z</time></trkpt><trkpt lat="44.1501464" lon="12.1364014"><ele>187.57142857142856</ele><time>2026-05-01T11:35:42.066Z</time></trkpt><trkpt lat="44.1502027" lon="12.1364587"><ele>186.85714285714286</ele><time>2026-05-01T11:35:49.133Z</time></trkpt><trkpt lat="44.1502568" lon="12.1365114"><ele>186.14285714285714</ele><time>2026-05-01T11:35:55.066Z</time></trkpt><trkpt lat="44.1503173" lon="12.1365676"><ele>185.42857142857142</ele><time>2026-05-01T11:36:00.145Z</time></trkpt><trkpt lat="44.1503725" lon="12.1366336"><ele>184.71428571428572</ele><time>2026-05-01T11:36:06.14Z</time></trkpt><trkpt lat="44.150425" lon="12.1366847"><ele>184.0</ele><time>2026-05-01T11:36:12.136Z</time></trkpt><trkpt lat="44.1504827" lon="12.1367414"><ele>183.57142857142858</ele><time>2026-05-01T11:36:19.147Z</time></trkpt><trkpt lat="44.1505418" lon="12.1367994"><ele>183.14285714285714</ele><time>2026-05-01T11:36:26.158Z</time></trkpt><trkpt lat="44.1505941" lon="12.1368495"><ele>182.71428571428572</ele><time>2026-05-01T11:36:32.732Z</time></trkpt><trkpt lat="44.1506495" lon="12.1368999"><ele>182.28571428571428</ele><time>2026-05-01T11:36:40.079Z</time></trkpt><trkpt lat="44.1507059" lon="12.1369612"><ele>181.85714285714283</ele><time>2026-05-01T11:36:46.999Z</time></trkpt><trkpt lat="44.1507695" lon="12.137019"><ele>181.42857142857142</ele><time>2026-05-01T11:36:54.102Z</time></trkpt><trkpt lat="44.1508216" lon="12.1370753"><ele>181.0</ele><time>2026-05-01T11:37:02.063Z</time></trkpt><trkpt lat="44.1508765" lon="12.1371387"><ele>180.42857142857142</ele><time>2026-05-01T11:37:08.159Z</time></trkpt><trkpt lat="44.1509313" lon="12.1372027"><ele>179.85714285714283</ele><time>2026-05-01T11:37:13.137Z</time></trkpt><trkpt lat="44.1509865" lon="12.1372503"><ele>179.28571428571428</ele><time>2026-05-01T11:37:18.116Z</time></trkpt><trkpt lat="44.1510413" lon="12.1372976"><ele>178.71428571428572</ele><time>2026-05-01T11:37:23.094Z</time></trkpt><trkpt lat="44.1511068" lon="12.1373074"><ele>178.14285714285714</ele><time>2026-05-01T11:37:30.107Z</time></trkpt><trkpt lat="44.1511593" lon="12.137247"><ele>177.57142857142858</ele><time>2026-05-01T11:37:39.15Z</time></trkpt><trkpt lat="44.1512057" lon="12.1371818"><ele>177.0</ele><time>2026-05-01T11:37:46.16Z</time></trkpt><trkpt lat="44.1512555" lon="12.1371236"><ele>177.0</ele><time>2026-05-01T11:37:58.151Z</time></trkpt><trkpt lat="44.1513212" lon="12.1371153"><ele>177.0</ele><time>2026-05-01T11:38:07.092Z</time></trkpt><trkpt lat="44.1513828" lon="12.1371445"><ele>177.0</ele><time>2026-05-01T11:38:13.054Z</time></trkpt><trkpt lat="44.1514481" lon="12.1371678"><ele>177.0</ele><time>2026-05-01T11:38:18.112Z</time></trkpt><trkpt lat="44.151515" lon="12.1371753"><ele>177.0</ele><time>2026-05-01T11:38:24.164Z</time></trkpt><trkpt lat="44.1515841" lon="12.1371942"><ele>177.0</ele><time>2026-05-01T11:38:34.122Z</time></trkpt><trkpt lat="44.1516502" lon="12.1371708"><ele>177.0</ele><time>2026-05-01T11:38:45.096Z</time></trkpt><trkpt lat="44.1517131" lon="12.1371407"><ele>175.2857142857143</ele><time>2026-05-01T11:38:53.123Z</time></trkpt><trkpt lat="44.1517796" lon="12.1371439"><ele>173.57142857142856</ele><time>2026-05-01T11:39:00.133Z</time></trkpt><trkpt lat="44.1518451" lon="12.1371626"><ele>171.85714285714286</ele><time>2026-05-01T11:39:09.076Z</time></trkpt><trkpt lat="44.1519109" lon="12.1371589"><ele>170.14285714285717</ele><time>2026-05-01T11:39:18.055Z</time></trkpt><trkpt lat="44.1519873" lon="12.1371891"><ele>168.42857142857144</ele><time>2026-05-01T11:39:27.063Z</time></trkpt><trkpt lat="44.1520595" lon="12.1371823"><ele>166.71428571428572</ele><time>2026-05-01T11:39:32.142Z</time></trkpt><trkpt lat="44.1521201" lon="12.1371536"><ele>165.0</ele><time>2026-05-01T11:39:36.104Z</time></trkpt><trkpt lat="44.1521831" lon="12.1371227"><ele>165.00000000000003</ele><time>2026-05-01T11:39:41.083Z</time></trkpt><trkpt lat="44.152246" lon="12.1371104"><ele>165.0</ele><time>2026-05-01T11:39:46.063Z</time></trkpt><trkpt lat="44.1523136" lon="12.137103"><ele>165.0</ele><time>2026-05-01T11:39:53.073Z</time></trkpt><trkpt lat="44.1523739" lon="12.1371372"><ele>165.0</ele><time>2026-05-01T11:40:00.075Z</time></trkpt><trkpt lat="44.1524396" lon="12.1371808"><ele>165.0</ele><time>2026-05-01T11:40:07.096Z</time></trkpt><trkpt lat="44.152497" lon="12.1371168"><ele>165.00000000000003</ele><time>2026-05-01T11:40:13.091Z</time></trkpt><trkpt lat="44.1525682" lon="12.1370821"><ele>165.0</ele><time>2026-05-01T11:40:46.115Z</time></trkpt><trkpt lat="44.1526234" lon="12.1370301"><ele>163.42857142857144</ele><time>2026-05-01T11:40:58.104Z</time></trkpt><trkpt lat="44.1526699" lon="12.1369565"><ele>161.85714285714286</ele><time>2026-05-01T11:41:10.094Z</time></trkpt><trkpt lat="44.1527205" lon="12.1368938"><ele>160.28571428571428</ele><time>2026-05-01T11:41:19.035Z</time></trkpt><trkpt lat="44.1527691" lon="12.1368317"><ele>158.71428571428572</ele><time>2026-05-01T11:41:28.112Z</time></trkpt><trkpt lat="44.1528177" lon="12.1367692"><ele>157.14285714285714</ele><time>2026-05-01T11:41:35.094Z</time></trkpt><trkpt lat="44.1528613" lon="12.1366999"><ele>155.57142857142858</ele><time>2026-05-01T11:41:43.074Z</time></trkpt><trkpt lat="44.1529177" lon="12.1366477"><ele>154.0</ele><time>2026-05-01T11:41:58.156Z</time></trkpt><trkpt lat="44.1529887" lon="12.1366215"><ele>154.0</ele><time>2026-05-01T11:42:07.098Z</time></trkpt><trkpt lat="44.1530541" lon="12.1366192"><ele>154.0</ele><time>2026-05-01T11:42:13.092Z</time></trkpt><trkpt lat="44.1531266" lon="12.1366101"><ele>154.0</ele><time>2026-05-01T11:42:21.12Z</time></trkpt><trkpt lat="44.1531898" lon="12.1366037"><ele>154.0</ele><time>2026-05-01T11:42:26.098Z</time></trkpt><trkpt lat="44.1532591" lon="12.1365742"><ele>154.0</ele><time>2026-05-01T11:42:42.063Z</time></trkpt><trkpt lat="44.1533244" lon="12.1365784"><ele>154.0</ele><time>2026-05-01T11:42:49.063Z</time></trkpt><trkpt lat="44.1533925" lon="12.1365972"><ele>154.0</ele><time>2026-05-01T11:42:58.105Z</time></trkpt><trkpt lat="44.153459" lon="12.1365907"><ele>152.57142857142858</ele><time>2026-05-01T11:43:06.132Z</time></trkpt><trkpt lat="44.1535254" lon="12.1365801"><ele>151.14285714285714</ele><time>2026-05-01T11:43:14.16Z</time></trkpt><trkpt lat="44.1535935" lon="12.1365758"><ele>149.71428571428572</ele><time>2026-05-01T11:43:21.069Z</time></trkpt><trkpt lat="44.1536569" lon="12.136562"><ele>148.28571428571428</ele><time>2026-05-01T11:43:28.08Z</time></trkpt><trkpt lat="44.1537327" lon="12.1365419"><ele>146.85714285714286</ele><time>2026-05-01T11:43:34.753Z</time></trkpt><trkpt lat="44.1537984" lon="12.1365265"><ele>145.42857142857144</ele><time>2026-05-01T11:43:42.103Z</time></trkpt><trkpt lat="44.1538651" lon="12.1365108"><ele>144.0</ele><time>2026-05-01T11:43:49.876Z</time></trkpt><trkpt lat="44.1539349" lon="12.1365009"><ele>142.71428571428572</ele><time>2026-05-01T11:43:57.14Z</time></trkpt><trkpt lat="44.1539997" lon="12.1364917"><ele>141.42857142857144</ele><time>2026-05-01T11:44:05.067Z</time></trkpt><trkpt lat="44.1540693" lon="12.1364826"><ele>140.14285714285714</ele><time>2026-05-01T11:44:13.094Z</time></trkpt><trkpt lat="44.1541339" lon="12.1364727"><ele>138.85714285714286</ele><time>2026-05-01T11:44:20.104Z</time></trkpt><trkpt lat="44.1541999" lon="12.1364578"><ele>137.57142857142856</ele><time>2026-05-01T11:44:28.115Z</time></trkpt><trkpt lat="44.1542637" lon="12.1364297"><ele>136.28571428571428</ele><time>2026-05-01T11:44:36.159Z</time></trkpt><trkpt lat="44.1543258" lon="12.1363975"><ele>135.0</ele><time>2026-05-01T11:44:45.1Z</time></trkpt><trkpt lat="44.1543953" lon="12.1363633"><ele>134.0</ele><time>2026-05-01T11:44:51.096Z</time></trkpt><trkpt lat="44.1544631" lon="12.1363289"><ele>133.0</ele><time>2026-05-01T11:44:57.073Z</time></trkpt><trkpt lat="44.1545361" lon="12.1362901"><ele>132.0</ele><time>2026-05-01T11:45:03.085Z</time></trkpt><trkpt lat="44.1546057" lon="12.13625"><ele>131.0</ele><time>2026-05-01T11:45:08.373Z</time></trkpt><trkpt lat="44.1546663" lon="12.1362112"><ele>130.0</ele><time>2026-05-01T11:45:14.161Z</time></trkpt><trkpt lat="44.154722" lon="12.1361702"><ele>129.0</ele><time>2026-05-01T11:45:20.156Z</time></trkpt><trkpt lat="44.1547747" lon="12.1361104"><ele>128.0</ele><time>2026-05-01T11:45:26.152Z</time></trkpt><trkpt lat="44.154836" lon="12.1360592"><ele>127.71428571428571</ele><time>2026-05-01T11:45:32.147Z</time></trkpt><trkpt lat="44.1548944" lon="12.1360124"><ele>127.42857142857142</ele><time>2026-05-01T11:45:39.157Z</time></trkpt><trkpt lat="44.1549705" lon="12.1359727"><ele>127.14285714285714</ele><time>2026-05-01T11:45:56.126Z</time></trkpt><trkpt lat="44.1550368" lon="12.1359545"><ele>126.85714285714286</ele><time>2026-05-01T11:46:03.137Z</time></trkpt><trkpt lat="44.1551013" lon="12.135955"><ele>126.57142857142857</ele><time>2026-05-01T11:46:09.136Z</time></trkpt><trkpt lat="44.1551652" lon="12.1359368"><ele>126.28571428571428</ele><time>2026-05-01T11:46:15.127Z</time></trkpt><trkpt lat="44.1552291" lon="12.1359162"><ele>126.0</ele><time>2026-05-01T11:46:21.122Z</time></trkpt><trkpt lat="44.1552901" lon="12.1358878"><ele>126.0</ele><time>2026-05-01T11:46:31.08Z</time></trkpt><trkpt lat="44.1553535" lon="12.1358779"><ele>126.0</ele><time>2026-05-01T11:46:37.074Z</time></trkpt><trkpt lat="44.1554188" lon="12.1358521"><ele>126.0</ele><time>2026-05-01T11:46:46.118Z</time></trkpt><trkpt lat="44.1554832" lon="12.1358497"><ele>126.0</ele><time>2026-05-01T11:46:59.124Z</time></trkpt><trkpt lat="44.1555539" lon="12.1358529"><ele>126.0</ele><time>2026-05-01T11:47:06.173Z</time></trkpt><trkpt lat="44.1556175" lon="12.1358551"><ele>126.0</ele><time>2026-05-01T11:47:12.13Z</time></trkpt><trkpt lat="44.1556842" lon="12.1358779"><ele>126.0</ele><time>2026-05-01T11:47:20.157Z</time></trkpt><trkpt lat="44.1557484" lon="12.1359055"><ele>124.57142857142857</ele><time>2026-05-01T11:47:28.083Z</time></trkpt><trkpt lat="44.1558147" lon="12.1359408"><ele>123.14285714285714</ele><time>2026-05-01T11:47:34.077Z</time></trkpt><trkpt lat="44.1558647" lon="12.1360077"><ele>121.71428571428572</ele><time>2026-05-01T11:47:42.032Z</time></trkpt><trkpt lat="44.1559121" lon="12.1360711"><ele>120.28571428571429</ele><time>2026-05-01T11:47:52.063Z</time></trkpt><trkpt lat="44.1559672" lon="12.1361141"><ele>118.85714285714286</ele><time>2026-05-01T11:47:58.16Z</time></trkpt><trkpt lat="44.1560243" lon="12.1361673"><ele>117.42857142857144</ele><time>2026-05-01T11:48:04.155Z</time></trkpt><trkpt lat="44.1560743" lon="12.1362232"><ele>116.00000000000001</ele><time>2026-05-01T11:48:10.15Z</time></trkpt><trkpt lat="44.15612" lon="12.1362889"><ele>116.00000000000001</ele><time>2026-05-01T11:48:17.054Z</time></trkpt><trkpt lat="44.1561454" lon="12.1363748"><ele>116.0</ele><time>2026-05-01T11:48:24.07Z</time></trkpt><trkpt lat="44.1561888" lon="12.1364419"><ele>116.00000000000001</ele><time>2026-05-01T11:48:30.998Z</time></trkpt><trkpt lat="44.1562357" lon="12.1365088"><ele>116.00000000000001</ele><time>2026-05-01T11:48:38.155Z</time></trkpt><trkpt lat="44.1562999" lon="12.1365503"><ele>116.0</ele><time>2026-05-01T11:48:45.095Z</time></trkpt><trkpt lat="44.1563502" lon="12.1366066"><ele>116.00000000000001</ele><time>2026-05-01T11:48:51.013Z</time></trkpt><trkpt lat="44.156403" lon="12.1366673"><ele>116.00000000000001</ele><time>2026-05-01T11:48:58.109Z</time></trkpt><trkpt lat="44.1564548" lon="12.1367235"><ele>114.57142857142858</ele><time>2026-05-01T11:49:05.173Z</time></trkpt><trkpt lat="44.1565111" lon="12.1367737"><ele>113.14285714285714</ele><time>2026-05-01T11:49:11.116Z</time></trkpt><trkpt lat="44.1565813" lon="12.1367909"><ele>111.71428571428572</ele><time>2026-05-01T11:49:20.158Z</time></trkpt><trkpt lat="44.1566165" lon="12.1368643"><ele>110.28571428571429</ele><time>2026-05-01T11:49:27.134Z</time></trkpt><trkpt lat="44.15665" lon="12.1369499"><ele>108.85714285714286</ele><time>2026-05-01T11:49:36.111Z</time></trkpt><trkpt lat="44.1567017" lon="12.1370141"><ele>107.42857142857143</ele><time>2026-05-01T11:49:44.096Z</time></trkpt><trkpt lat="44.15676" lon="12.1370504"><ele>106.0</ele><time>2026-05-01T11:49:50.134Z</time></trkpt><trkpt lat="44.1568309" lon="12.1370762"><ele>106.0</ele><time>2026-05-01T11:49:57.145Z</time></trkpt><trkpt lat="44.1568847" lon="12.137122"><ele>106.0</ele><time>2026-05-01T11:50:06.086Z</time></trkpt><trkpt lat="44.1569288" lon="12.1371878"><ele>106.0</ele><time>2026-05-01T11:50:14.113Z</time></trkpt><trkpt lat="44.156981" lon="12.1372454"><ele>106.0</ele><time>2026-05-01T11:50:22.141Z</time></trkpt><trkpt lat="44.1570134" lon="12.1373294"><ele>106.0</ele><time>2026-05-01T11:50:30.066Z</time></trkpt><trkpt lat="44.157056" lon="12.1373967"><ele>106.0</ele><time>2026-05-01T11:50:37.078Z</time></trkpt><trkpt lat="44.1571155" lon="12.1374498"><ele>106.0</ele><time>2026-05-01T11:50:45.104Z</time></trkpt><trkpt lat="44.1571682" lon="12.1374994"><ele>104.14285714285715</ele><time>2026-05-01T11:50:51.014Z</time></trkpt><trkpt lat="44.1572308" lon="12.1375103"><ele>102.28571428571428</ele><time>2026-05-01T11:50:57.094Z</time></trkpt><trkpt lat="44.1573339" lon="12.137547"><ele>100.42857142857143</ele><time>2026-05-01T11:51:24.123Z</time></trkpt><trkpt lat="44.1573966" lon="12.1375579"><ele>98.57142857142858</ele><time>2026-05-01T11:51:27.975Z</time></trkpt><trkpt lat="44.1574572" lon="12.1376081"><ele>96.71428571428572</ele><time>2026-05-01T11:51:34.114Z</time></trkpt><trkpt lat="44.1574752" lon="12.1375058"><ele>94.85714285714286</ele><time>2026-05-01T11:52:33.116Z</time></trkpt><trkpt lat="44.1575296" lon="12.137453"><ele>93.0</ele><time>2026-05-01T11:52:42.063Z</time></trkpt><trkpt lat="44.1575866" lon="12.1374048"><ele>93.00000000000001</ele><time>2026-05-01T11:52:48.154Z</time></trkpt><trkpt lat="44.1576442" lon="12.1373456"><ele>93.0</ele><time>2026-05-01T11:52:54.149Z</time></trkpt><trkpt lat="44.1576921" lon="12.1372672"><ele>93.0</ele><time>2026-05-01T11:53:01.064Z</time></trkpt><trkpt lat="44.1577154" lon="12.1371808"><ele>93.0</ele><time>2026-05-01T11:53:09.085Z</time></trkpt><trkpt lat="44.1577535" lon="12.1370983"><ele>93.0</ele><time>2026-05-01T11:53:16.092Z</time></trkpt><trkpt lat="44.1577968" lon="12.1370257"><ele>93.00000000000001</ele><time>2026-05-01T11:53:23.109Z</time></trkpt><trkpt lat="44.1578391" lon="12.1369577"><ele>93.0</ele><time>2026-05-01T11:53:31.135Z</time></trkpt><trkpt lat="44.1578765" lon="12.1368804"><ele>93.00000000000001</ele><time>2026-05-01T11:53:37.192Z</time></trkpt><trkpt lat="44.1579029" lon="12.136799"><ele>93.0</ele><time>2026-05-01T11:53:43.154Z</time></trkpt><trkpt lat="44.1578841" lon="12.1367017"><ele>93.0</ele><time>2026-05-01T11:53:50.137Z</time></trkpt><trkpt lat="44.1578895" lon="12.1365956"><ele>93.0</ele><time>2026-05-01T11:53:55.153Z</time></trkpt><trkpt lat="44.1579125" lon="12.1365005"><ele>93.0</ele><time>2026-05-01T11:54:01.112Z</time></trkpt><trkpt lat="44.1579337" lon="12.1363936"><ele>93.00000000000001</ele><time>2026-05-01T11:54:07.106Z</time></trkpt><trkpt lat="44.1579628" lon="12.1363116"><ele>93.0</ele><time>2026-05-01T11:54:12.086Z</time></trkpt><trkpt lat="44.1580005" lon="12.1362332"><ele>92.14285714285715</ele><time>2026-05-01T11:54:17.055Z</time></trkpt><trkpt lat="44.1580598" lon="12.136183"><ele>91.28571428571429</ele><time>2026-05-01T11:54:23.063Z</time></trkpt><trkpt lat="44.1581274" lon="12.1361598"><ele>90.42857142857143</ele><time>2026-05-01T11:54:29.157Z</time></trkpt><trkpt lat="44.1581902" lon="12.1361691"><ele>89.57142857142858</ele><time>2026-05-01T11:54:35.152Z</time></trkpt><trkpt lat="44.158254" lon="12.1361792"><ele>88.71428571428572</ele><time>2026-05-01T11:54:42.177Z</time></trkpt><trkpt lat="44.1583228" lon="12.1361899"><ele>87.85714285714286</ele><time>2026-05-01T11:54:48.159Z</time></trkpt><trkpt lat="44.1583842" lon="12.1362146"><ele>87.0</ele><time>2026-05-01T11:54:59.094Z</time></trkpt><trkpt lat="44.1584477" lon="12.1362257"><ele>84.85714285714286</ele><time>2026-05-01T11:55:04.112Z</time></trkpt><trkpt lat="44.1585218" lon="12.1362303"><ele>82.71428571428572</ele><time>2026-05-01T11:55:10.115Z</time></trkpt><trkpt lat="44.1585918" lon="12.1362408"><ele>80.57142857142858</ele><time>2026-05-01T11:55:16.102Z</time></trkpt><trkpt lat="44.1586583" lon="12.1362753"><ele>78.42857142857143</ele><time>2026-05-01T11:55:24.129Z</time></trkpt><trkpt lat="44.1587244" lon="12.1362824"><ele>76.28571428571429</ele><time>2026-05-01T11:55:30.124Z</time></trkpt><trkpt lat="44.1587938" lon="12.1362826"><ele>74.14285714285715</ele><time>2026-05-01T11:55:36.138Z</time></trkpt><trkpt lat="44.1588653" lon="12.1362768"><ele>72.0</ele><time>2026-05-01T11:55:43.053Z</time></trkpt><trkpt lat="44.1589284" lon="12.1362423"><ele>72.00000000000001</ele><time>2026-05-01T11:55:50.142Z</time></trkpt><trkpt lat="44.1590007" lon="12.1362273"><ele>72.0</ele><time>2026-05-01T11:55:57.152Z</time></trkpt><trkpt lat="44.1590665" lon="12.1361983"><ele>72.0</ele><time>2026-05-01T11:56:04.064Z</time></trkpt><trkpt lat="44.1591301" lon="12.1361778"><ele>72.0</ele><time>2026-05-01T11:56:10.159Z</time></trkpt><trkpt lat="44.159192" lon="12.1361597"><ele>72.0</ele><time>2026-05-01T11:56:16.154Z</time></trkpt><trkpt lat="44.1592558" lon="12.136142"><ele>72.00000000000001</ele><time>2026-05-01T11:56:23.064Z</time></trkpt><trkpt lat="44.15932" lon="12.1361115"><ele>72.0</ele><time>2026-05-01T11:56:29.16Z</time></trkpt><trkpt lat="44.159379" lon="12.1360757"><ele>69.71428571428572</ele><time>2026-05-01T11:56:35.064Z</time></trkpt><trkpt lat="44.1594424" lon="12.1360448"><ele>67.42857142857143</ele><time>2026-05-01T11:56:41.15Z</time></trkpt><trkpt lat="44.1595101" lon="12.1360301"><ele>65.14285714285714</ele><time>2026-05-01T11:56:47.146Z</time></trkpt><trkpt lat="44.1595708" lon="12.1359942"><ele>62.85714285714286</ele><time>2026-05-01T11:56:55.071Z</time></trkpt><trkpt lat="44.159637" lon="12.1359566"><ele>60.57142857142857</ele><time>2026-05-01T11:57:02.083Z</time></trkpt><trkpt lat="44.1597029" lon="12.1359349"><ele>58.285714285714285</ele><time>2026-05-01T11:57:07.991Z</time></trkpt><trkpt lat="44.1597711" lon="12.1359298"><ele>56.0</ele><time>2026-05-01T11:57:14.072Z</time></trkpt><trkpt lat="44.1598394" lon="12.1359222"><ele>55.42857142857143</ele><time>2026-05-01T11:57:21.083Z</time></trkpt><trkpt lat="44.159907" lon="12.1359125"><ele>54.85714285714286</ele><time>2026-05-01T11:57:27.078Z</time></trkpt><trkpt lat="44.1599686" lon="12.1358832"><ele>54.285714285714285</ele><time>2026-05-01T11:57:33.074Z</time></trkpt><trkpt lat="44.1600378" lon="12.1358651"><ele>53.714285714285715</ele><time>2026-05-01T11:57:41.075Z</time></trkpt><trkpt lat="44.1601036" lon="12.1358564"><ele>53.142857142857146</ele><time>2026-05-01T11:57:48.112Z</time></trkpt><trkpt lat="44.1601694" lon="12.135847"><ele>52.57142857142857</ele><time>2026-05-01T11:57:55.033Z</time></trkpt><trkpt lat="44.1602356" lon="12.1358257"><ele>52.0</ele><time>2026-05-01T11:58:01.119Z</time></trkpt><trkpt lat="44.1602984" lon="12.1358122"><ele>52.0</ele><time>2026-05-01T11:58:09.147Z</time></trkpt><trkpt lat="44.1603663" lon="12.1357857"><ele>52.0</ele><time>2026-05-01T11:58:17.073Z</time></trkpt><trkpt lat="44.160432" lon="12.1357725"><ele>52.0</ele><time>2026-05-01T11:58:24.084Z</time></trkpt><trkpt lat="44.1604963" lon="12.1357585"><ele>52.0</ele><time>2026-05-01T11:58:30.992Z</time></trkpt><trkpt lat="44.160558" lon="12.1357383"><ele>52.0</ele><time>2026-05-01T11:58:37.135Z</time></trkpt><trkpt lat="44.1606187" lon="12.1357115"><ele>52.0</ele><time>2026-05-01T11:58:44.102Z</time></trkpt><trkpt lat="44.1606797" lon="12.1356705"><ele>52.0</ele><time>2026-05-01T11:58:51.01Z</time></trkpt><trkpt lat="44.1607436" lon="12.135627"><ele>51.0</ele><time>2026-05-01T11:58:58.173Z</time></trkpt><trkpt lat="44.1608058" lon="12.1356063"><ele>50.0</ele><time>2026-05-01T11:59:04.774Z</time></trkpt><trkpt lat="44.1608789" lon="12.1356125"><ele>49.0</ele><time>2026-05-01T11:59:11.13Z</time></trkpt><trkpt lat="44.1609483" lon="12.1356157"><ele>48.0</ele><time>2026-05-01T11:59:18.142Z</time></trkpt><trkpt lat="44.1610149" lon="12.1356386"><ele>47.0</ele><time>2026-05-01T11:59:25.152Z</time></trkpt><trkpt lat="44.1610894" lon="12.135639"><ele>46.0</ele><time>2026-05-01T11:59:31.147Z</time></trkpt><trkpt lat="44.1611583" lon="12.135643"><ele>45.0</ele><time>2026-05-01T11:59:38.16Z</time></trkpt><trkpt lat="44.161222" lon="12.1356421"><ele>45.0</ele><time>2026-05-01T11:59:44.155Z</time></trkpt><trkpt lat="44.1612878" lon="12.1356563"><ele>45.0</ele><time>2026-05-01T11:59:50.152Z</time></trkpt><trkpt lat="44.1613587" lon="12.1356588"><ele>45.0</ele><time>2026-05-01T11:59:57.064Z</time></trkpt><trkpt lat="44.1614313" lon="12.1356602"><ele>45.0</ele><time>2026-05-01T12:00:03.064Z</time></trkpt><trkpt lat="44.1614921" lon="12.1356922"><ele>45.0</ele><time>2026-05-01T12:00:11.082Z</time></trkpt><trkpt lat="44.161554" lon="12.1357294"><ele>45.0</ele><time>2026-05-01T12:00:22.974Z</time></trkpt><trkpt lat="44.1616253" lon="12.1357328"><ele>45.0</ele><time>2026-05-01T12:00:29.066Z</time></trkpt><trkpt lat="44.1616942" lon="12.1357633"><ele>44.714285714285715</ele><time>2026-05-01T12:00:35.064Z</time></trkpt><trkpt lat="44.1617625" lon="12.1357766"><ele>44.42857142857143</ele><time>2026-05-01T12:00:42.073Z</time></trkpt><trkpt lat="44.161835" lon="12.1357882"><ele>44.142857142857146</ele><time>2026-05-01T12:00:48.068Z</time></trkpt><trkpt lat="44.1618996" lon="12.135789"><ele>43.85714285714286</ele><time>2026-05-01T12:00:55.155Z</time></trkpt><trkpt lat="44.1619659" lon="12.1358307"><ele>43.57142857142857</ele><time>2026-05-01T12:01:03.056Z</time></trkpt><trkpt lat="44.1620247" lon="12.1358663"><ele>43.28571428571429</ele><time>2026-05-01T12:01:12.151Z</time></trkpt><trkpt lat="44.1620987" lon="12.1358657"><ele>43.0</ele><time>2026-05-01T12:01:21.172Z</time></trkpt><trkpt lat="44.1621647" lon="12.1358854"><ele>43.00000000000001</ele><time>2026-05-01T12:01:27.088Z</time></trkpt><trkpt lat="44.1622403" lon="12.1359024"><ele>43.0</ele><time>2026-05-01T12:01:35.115Z</time></trkpt><trkpt lat="44.1623128" lon="12.1359173"><ele>43.0</ele><time>2026-05-01T12:01:41.155Z</time></trkpt><trkpt lat="44.1623746" lon="12.1359502"><ele>43.0</ele><time>2026-05-01T12:01:47.106Z</time></trkpt><trkpt lat="44.1624472" lon="12.1359657"><ele>43.0</ele><time>2026-05-01T12:01:53.101Z</time></trkpt><trkpt lat="44.1625109" lon="12.1360043"><ele>43.00000000000001</ele><time>2026-05-01T12:02:00.111Z</time></trkpt><trkpt lat="44.1625816" lon="12.1360145"><ele>43.0</ele><time>2026-05-01T12:02:06.106Z</time></trkpt><trkpt lat="44.1626379" lon="12.1360598"><ele>42.714285714285715</ele><time>2026-05-01T12:02:11.634Z</time></trkpt><trkpt lat="44.1626937" lon="12.1361075"><ele>42.42857142857143</ele><time>2026-05-01T12:02:18.097Z</time></trkpt><trkpt lat="44.1627505" lon="12.136169"><ele>42.14285714285714</ele><time>2026-05-01T12:02:25.074Z</time></trkpt><trkpt lat="44.1628189" lon="12.1361914"><ele>41.85714285714286</ele><time>2026-05-01T12:02:32.12Z</time></trkpt><trkpt lat="44.1628792" lon="12.1362229"><ele>41.57142857142857</ele><time>2026-05-01T12:02:38.115Z</time></trkpt><trkpt lat="44.1629426" lon="12.1362397"><ele>41.285714285714285</ele><time>2026-05-01T12:02:45.126Z</time></trkpt><trkpt lat="44.163009" lon="12.1362496"><ele>41.0</ele><time>2026-05-01T12:02:51.014Z</time></trkpt><trkpt lat="44.1630789" lon="12.1362698"><ele>40.99999999999999</ele><time>2026-05-01T12:02:58.133Z</time></trkpt><trkpt lat="44.1631444" lon="12.136313"><ele>41.0</ele><time>2026-05-01T12:03:04.127Z</time></trkpt><trkpt lat="44.1632084" lon="12.136349"><ele>41.0</ele><time>2026-05-01T12:03:11.139Z</time></trkpt><trkpt lat="44.1632716" lon="12.1363917"><ele>41.0</ele><time>2026-05-01T12:03:17.134Z</time></trkpt><trkpt lat="44.1633366" lon="12.1364154"><ele>41.0</ele><time>2026-05-01T12:03:24.055Z</time></trkpt><trkpt lat="44.1634072" lon="12.1364336"><ele>40.99999999999999</ele><time>2026-05-01T12:03:31.156Z</time></trkpt><trkpt lat="44.1634735" lon="12.1364283"><ele>41.0</ele><time>2026-05-01T12:03:37.151Z</time></trkpt><trkpt lat="44.1635428" lon="12.1364546"><ele>40.99999999999999</ele><time>2026-05-01T12:03:44.162Z</time></trkpt><trkpt lat="44.163611" lon="12.1364718"><ele>41.0</ele><time>2026-05-01T12:03:50.157Z</time></trkpt><trkpt lat="44.1636744" lon="12.1365353"><ele>41.0</ele><time>2026-05-01T12:03:56.152Z</time></trkpt><trkpt lat="44.1637341" lon="12.1365931"><ele>41.0</ele><time>2026-05-01T12:04:01.132Z</time></trkpt><trkpt lat="44.1637987" lon="12.1366073"><ele>41.0</ele><time>2026-05-01T12:04:08.112Z</time></trkpt><trkpt lat="44.1638628" lon="12.1366573"><ele>40.99999999999999</ele><time>2026-05-01T12:04:15.155Z</time></trkpt><trkpt lat="44.1639274" lon="12.1366738"><ele>41.0</ele><time>2026-05-01T12:04:20.133Z</time></trkpt><trkpt lat="44.1639901" lon="12.1367103"><ele>41.14285714285714</ele><time>2026-05-01T12:04:25.112Z</time></trkpt><trkpt lat="44.1640539" lon="12.1367417"><ele>41.285714285714285</ele><time>2026-05-01T12:04:32.124Z</time></trkpt><trkpt lat="44.1641212" lon="12.1367397"><ele>41.42857142857143</ele><time>2026-05-01T12:04:37.102Z</time></trkpt><trkpt lat="44.164189" lon="12.1367376"><ele>41.57142857142857</ele><time>2026-05-01T12:04:43.099Z</time></trkpt><trkpt lat="44.1642459" lon="12.1367917"><ele>41.714285714285715</ele><time>2026-05-01T12:04:49.093Z</time></trkpt><trkpt lat="44.1643144" lon="12.1367937"><ele>41.857142857142854</ele><time>2026-05-01T12:04:54.072Z</time></trkpt><trkpt lat="44.1643794" lon="12.1367871"><ele>42.0</ele><time>2026-05-01T12:05:00.067Z</time></trkpt><trkpt lat="44.1644364" lon="12.1368384"><ele>42.0</ele><time>2026-05-01T12:05:05.149Z</time></trkpt><trkpt lat="44.1645009" lon="12.1368972"><ele>42.0</ele><time>2026-05-01T12:05:11.054Z</time></trkpt><trkpt lat="44.1645523" lon="12.1369591"><ele>42.0</ele><time>2026-05-01T12:05:16.016Z</time></trkpt><trkpt lat="44.1646142" lon="12.1369985"><ele>42.0</ele><time>2026-05-01T12:05:24.15Z</time></trkpt><trkpt lat="44.1646711" lon="12.13704"><ele>42.0</ele><time>2026-05-01T12:05:30.145Z</time></trkpt><trkpt lat="44.1647424" lon="12.1370473"><ele>42.0</ele><time>2026-05-01T12:05:35.125Z</time></trkpt><trkpt lat="44.1648118" lon="12.1370791"><ele>42.0</ele><time>2026-05-01T12:05:40.103Z</time></trkpt><trkpt lat="44.1648722" lon="12.1371143"><ele>42.142857142857146</ele><time>2026-05-01T12:05:46.099Z</time></trkpt><trkpt lat="44.164944" lon="12.1371484"><ele>42.285714285714285</ele><time>2026-05-01T12:05:52.995Z</time></trkpt><trkpt lat="44.1650079" lon="12.1371499"><ele>42.42857142857143</ele><time>2026-05-01T12:05:57.072Z</time></trkpt><trkpt lat="44.1650695" lon="12.1371716"><ele>42.57142857142857</ele><time>2026-05-01T12:06:03.995Z</time></trkpt><trkpt lat="44.1651095" lon="12.1372542"><ele>42.714285714285715</ele><time>2026-05-01T12:06:09.063Z</time></trkpt><trkpt lat="44.1651642" lon="12.1372981"><ele>42.85714285714286</ele><time>2026-05-01T12:06:15.064Z</time></trkpt><trkpt lat="44.1652381" lon="12.1373118"><ele>43.0</ele><time>2026-05-01T12:06:21.155Z</time></trkpt><trkpt lat="44.165312" lon="12.1373062"><ele>43.00000000000001</ele><time>2026-05-01T12:06:26.135Z</time></trkpt><trkpt lat="44.1654018" lon="12.1373232"><ele>43.0</ele><time>2026-05-01T12:06:41.072Z</time></trkpt><trkpt lat="44.1654717" lon="12.1373254"><ele>43.0</ele><time>2026-05-01T12:06:47.066Z</time></trkpt><trkpt lat="44.1655454" lon="12.1373108"><ele>43.0</ele><time>2026-05-01T12:06:54.079Z</time></trkpt><trkpt lat="44.165612" lon="12.1372878"><ele>43.0</ele><time>2026-05-01T12:07:00.074Z</time></trkpt><trkpt lat="44.1656799" lon="12.1372754"><ele>43.00000000000001</ele><time>2026-05-01T12:07:07.085Z</time></trkpt><trkpt lat="44.1657511" lon="12.137273"><ele>43.0</ele><time>2026-05-01T12:07:14.095Z</time></trkpt><trkpt lat="44.1658244" lon="12.1372709"><ele>43.00000000000001</ele><time>2026-05-01T12:07:21.108Z</time></trkpt><trkpt lat="44.1658909" lon="12.1372749"><ele>43.0</ele><time>2026-05-01T12:07:27.103Z</time></trkpt><trkpt lat="44.1659576" lon="12.13727"><ele>43.0</ele><time>2026-05-01T12:07:33.097Z</time></trkpt><trkpt lat="44.1660227" lon="12.1372349"><ele>43.0</ele><time>2026-05-01T12:07:39.076Z</time></trkpt><trkpt lat="44.1660807" lon="12.1371854"><ele>43.0</ele><time>2026-05-01T12:07:46.105Z</time></trkpt><trkpt lat="44.1661448" lon="12.1371662"><ele>43.00000000000001</ele><time>2026-05-01T12:07:52.034Z</time></trkpt><trkpt lat="44.1662088" lon="12.1371535"><ele>43.0</ele><time>2026-05-01T12:08:01.073Z</time></trkpt><trkpt lat="44.1662692" lon="12.1371256"><ele>43.0</ele><time>2026-05-01T12:08:06.123Z</time></trkpt><trkpt lat="44.16634" lon="12.1371018"><ele>43.0</ele><time>2026-05-01T12:08:12.118Z</time></trkpt><trkpt lat="44.1663977" lon="12.1370613"><ele>43.0</ele><time>2026-05-01T12:08:21.063Z</time></trkpt><trkpt lat="44.1664548" lon="12.1370196"><ele>43.0</ele><time>2026-05-01T12:08:26.141Z</time></trkpt><trkpt lat="44.1665187" lon="12.1370098"><ele>43.0</ele><time>2026-05-01T12:08:37.093Z</time></trkpt></trkseg></trk></gpx>